<?xml version="1.0" encoding="UTF-8" standalone="no" ?>
<gpx xmlns="http://www.topografix.com/GPX/1/1" xmlns:xsi="http://www.w3.org/2001/XMLSchema-instance" xsi:schemaLocation="http://www.topografix.com/GPX/1/1 http://www.topografix.com/GPX/1/1/gpx.xsd" version="1.1" creator="VisuGPX - https://www.visugpx.com">
  <metadata>
    <name>Presqu'île de Crozon-Locronan</name>
  </metadata>
  <trk>
    <name><![CDATA[Presqu'île de Crozon-Locronan_1]]></name>
    <extensions>
      <line xmlns="http://www.topografix.com/GPX/gpx_style/0/2">
        <color>0000FF</color>
        <width>4</width>
      </line>
    </extensions>
    <trkseg>
      <trkpt lat="48.09795" lon="-4.21198">
        <ele>147.5</ele>
        <time>2021-09-23T12:14:58Z</time>
      </trkpt>
      <trkpt lat="48.09797" lon="-4.21205">
        <ele>146.4</ele>
        <time>2021-09-23T12:16:13Z</time>
      </trkpt>
      <trkpt lat="48.09799" lon="-4.21211">
        <ele>145.1</ele>
        <time>2021-09-23T12:16:19Z</time>
      </trkpt>
      <trkpt lat="48.09794" lon="-4.21205">
        <ele>144</ele>
        <time>2021-09-23T12:17:15Z</time>
      </trkpt>
      <trkpt lat="48.09795" lon="-4.21212">
        <ele>144.3</ele>
        <time>2021-09-23T12:19:05Z</time>
      </trkpt>
      <trkpt lat="48.09795" lon="-4.21224">
        <ele>143.9</ele>
        <time>2021-09-23T12:19:16Z</time>
      </trkpt>
      <trkpt lat="48.09795" lon="-4.21233">
        <ele>143.1</ele>
        <time>2021-09-23T12:19:19Z</time>
      </trkpt>
      <trkpt lat="48.09794" lon="-4.21243">
        <ele>142.1</ele>
        <time>2021-09-23T12:19:28Z</time>
      </trkpt>
      <trkpt lat="48.09794" lon="-4.21252">
        <ele>141.8</ele>
        <time>2021-09-23T12:19:31Z</time>
      </trkpt>
      <trkpt lat="48.09794" lon="-4.2126">
        <ele>141.6</ele>
        <time>2021-09-23T12:19:35Z</time>
      </trkpt>
      <trkpt lat="48.09795" lon="-4.21267">
        <ele>141.3</ele>
        <time>2021-09-23T12:19:38Z</time>
      </trkpt>
      <trkpt lat="48.09797" lon="-4.21273">
        <ele>141.2</ele>
        <time>2021-09-23T12:19:41Z</time>
      </trkpt>
      <trkpt lat="48.09798" lon="-4.2128">
        <ele>140.9</ele>
        <time>2021-09-23T12:19:46Z</time>
      </trkpt>
      <trkpt lat="48.09803" lon="-4.21284">
        <ele>140.4</ele>
        <time>2021-09-23T12:19:56Z</time>
      </trkpt>
      <trkpt lat="48.09807" lon="-4.21286">
        <ele>140.1</ele>
        <time>2021-09-23T12:19:59Z</time>
      </trkpt>
      <trkpt lat="48.09814" lon="-4.21285">
        <ele>139.4</ele>
        <time>2021-09-23T12:20:09Z</time>
      </trkpt>
      <trkpt lat="48.0982" lon="-4.21284">
        <ele>139.2</ele>
        <time>2021-09-23T12:20:12Z</time>
      </trkpt>
      <trkpt lat="48.09826" lon="-4.21279">
        <ele>138.3</ele>
        <time>2021-09-23T12:20:23Z</time>
      </trkpt>
      <trkpt lat="48.0983" lon="-4.21276">
        <ele>137.5</ele>
        <time>2021-09-23T12:20:26Z</time>
      </trkpt>
      <trkpt lat="48.09834" lon="-4.21273">
        <ele>136.6</ele>
        <time>2021-09-23T12:20:30Z</time>
      </trkpt>
      <trkpt lat="48.09839" lon="-4.21271">
        <ele>135.7</ele>
        <time>2021-09-23T12:20:34Z</time>
      </trkpt>
      <trkpt lat="48.09845" lon="-4.21268">
        <ele>133.9</ele>
        <time>2021-09-23T12:20:46Z</time>
      </trkpt>
      <trkpt lat="48.09851" lon="-4.21266">
        <ele>133.3</ele>
        <time>2021-09-23T12:20:49Z</time>
      </trkpt>
      <trkpt lat="48.09857" lon="-4.21264">
        <ele>132</ele>
        <time>2021-09-23T12:20:58Z</time>
      </trkpt>
      <trkpt lat="48.09862" lon="-4.21264">
        <ele>131.4</ele>
        <time>2021-09-23T12:21:01Z</time>
      </trkpt>
      <trkpt lat="48.09869" lon="-4.2126">
        <ele>130</ele>
        <time>2021-09-23T12:21:11Z</time>
      </trkpt>
      <trkpt lat="48.09874" lon="-4.21256">
        <ele>129.3</ele>
        <time>2021-09-23T12:21:14Z</time>
      </trkpt>
      <trkpt lat="48.0988" lon="-4.21256">
        <ele>127.7</ele>
        <time>2021-09-23T12:21:25Z</time>
      </trkpt>
      <trkpt lat="48.09886" lon="-4.21259">
        <ele>127.1</ele>
        <time>2021-09-23T12:21:28Z</time>
      </trkpt>
      <trkpt lat="48.09891" lon="-4.21263">
        <ele>126</ele>
        <time>2021-09-23T12:21:35Z</time>
      </trkpt>
      <trkpt lat="48.09893" lon="-4.21269">
        <ele>125.3</ele>
        <time>2021-09-23T12:21:38Z</time>
      </trkpt>
      <trkpt lat="48.09898" lon="-4.21276">
        <ele>125.3</ele>
        <time>2021-09-23T12:23:05Z</time>
      </trkpt>
      <trkpt lat="48.099" lon="-4.21282">
        <ele>126.9</ele>
        <time>2021-09-23T12:23:11Z</time>
      </trkpt>
      <trkpt lat="48.09902" lon="-4.21289">
        <ele>129</ele>
        <time>2021-09-23T12:25:27Z</time>
      </trkpt>
      <trkpt lat="48.09905" lon="-4.21295">
        <ele>129.4</ele>
        <time>2021-09-23T12:25:31Z</time>
      </trkpt>
      <trkpt lat="48.09908" lon="-4.213">
        <ele>129.7</ele>
        <time>2021-09-23T12:25:36Z</time>
      </trkpt>
      <trkpt lat="48.09912" lon="-4.21307">
        <ele>129.9</ele>
        <time>2021-09-23T12:25:43Z</time>
      </trkpt>
      <trkpt lat="48.09915" lon="-4.21313">
        <ele>130</ele>
        <time>2021-09-23T12:25:47Z</time>
      </trkpt>
      <trkpt lat="48.09921" lon="-4.21314">
        <ele>129.5</ele>
        <time>2021-09-23T12:26:05Z</time>
      </trkpt>
      <trkpt lat="48.09926" lon="-4.21314">
        <ele>129</ele>
        <time>2021-09-23T12:26:10Z</time>
      </trkpt>
      <trkpt lat="48.09931" lon="-4.21316">
        <ele>128.1</ele>
        <time>2021-09-23T12:26:24Z</time>
      </trkpt>
      <trkpt lat="48.09936" lon="-4.21317">
        <ele>127.6</ele>
        <time>2021-09-23T12:26:27Z</time>
      </trkpt>
      <trkpt lat="48.09944" lon="-4.21318">
        <ele>126</ele>
        <time>2021-09-23T12:26:43Z</time>
      </trkpt>
      <trkpt lat="48.09949" lon="-4.2132">
        <ele>125.2</ele>
        <time>2021-09-23T12:26:46Z</time>
      </trkpt>
      <trkpt lat="48.09957" lon="-4.21326">
        <ele>123</ele>
        <time>2021-09-23T12:26:59Z</time>
      </trkpt>
      <trkpt lat="48.09962" lon="-4.21331">
        <ele>122.3</ele>
        <time>2021-09-23T12:27:02Z</time>
      </trkpt>
      <trkpt lat="48.09969" lon="-4.21336">
        <ele>120.7</ele>
        <time>2021-09-23T12:27:13Z</time>
      </trkpt>
      <trkpt lat="48.09973" lon="-4.21338">
        <ele>120</ele>
        <time>2021-09-23T12:27:17Z</time>
      </trkpt>
      <trkpt lat="48.09979" lon="-4.21339">
        <ele>118.6</ele>
        <time>2021-09-23T12:27:29Z</time>
      </trkpt>
      <trkpt lat="48.09985" lon="-4.21338">
        <ele>117.9</ele>
        <time>2021-09-23T12:27:32Z</time>
      </trkpt>
      <trkpt lat="48.09992" lon="-4.21332">
        <ele>116.1</ele>
        <time>2021-09-23T12:27:45Z</time>
      </trkpt>
      <trkpt lat="48.09997" lon="-4.21327">
        <ele>115.5</ele>
        <time>2021-09-23T12:27:48Z</time>
      </trkpt>
      <trkpt lat="48.10003" lon="-4.2132">
        <ele>114.4</ele>
        <time>2021-09-23T12:27:57Z</time>
      </trkpt>
      <trkpt lat="48.10007" lon="-4.21316">
        <ele>113.8</ele>
        <time>2021-09-23T12:28:00Z</time>
      </trkpt>
      <trkpt lat="48.10012" lon="-4.21309">
        <ele>112.7</ele>
        <time>2021-09-23T12:28:10Z</time>
      </trkpt>
      <trkpt lat="48.10015" lon="-4.21302">
        <ele>112.3</ele>
        <time>2021-09-23T12:28:13Z</time>
      </trkpt>
      <trkpt lat="48.10019" lon="-4.21293">
        <ele>111.3</ele>
        <time>2021-09-23T12:28:28Z</time>
      </trkpt>
      <trkpt lat="48.10023" lon="-4.21286">
        <ele>111.2</ele>
        <time>2021-09-23T12:28:31Z</time>
      </trkpt>
      <trkpt lat="48.10028" lon="-4.21277">
        <ele>110.3</ele>
        <time>2021-09-23T12:28:41Z</time>
      </trkpt>
      <trkpt lat="48.10031" lon="-4.21271">
        <ele>109.7</ele>
        <time>2021-09-23T12:28:44Z</time>
      </trkpt>
      <trkpt lat="48.10036" lon="-4.21264">
        <ele>108.2</ele>
        <time>2021-09-23T12:28:55Z</time>
      </trkpt>
      <trkpt lat="48.1004" lon="-4.21257">
        <ele>107.8</ele>
        <time>2021-09-23T12:28:58Z</time>
      </trkpt>
      <trkpt lat="48.10044" lon="-4.21248">
        <ele>106.8</ele>
        <time>2021-09-23T12:29:08Z</time>
      </trkpt>
      <trkpt lat="48.10046" lon="-4.21242">
        <ele>106.4</ele>
        <time>2021-09-23T12:29:11Z</time>
      </trkpt>
      <trkpt lat="48.10051" lon="-4.21234">
        <ele>105.6</ele>
        <time>2021-09-23T12:29:19Z</time>
      </trkpt>
      <trkpt lat="48.10055" lon="-4.21227">
        <ele>105.4</ele>
        <time>2021-09-23T12:29:22Z</time>
      </trkpt>
      <trkpt lat="48.1006" lon="-4.21218">
        <ele>104.8</ele>
        <time>2021-09-23T12:29:31Z</time>
      </trkpt>
      <trkpt lat="48.10065" lon="-4.21212">
        <ele>104.5</ele>
        <time>2021-09-23T12:29:34Z</time>
      </trkpt>
      <trkpt lat="48.10071" lon="-4.21206">
        <ele>104</ele>
        <time>2021-09-23T12:29:42Z</time>
      </trkpt>
      <trkpt lat="48.10076" lon="-4.21201">
        <ele>103.9</ele>
        <time>2021-09-23T12:29:45Z</time>
      </trkpt>
      <trkpt lat="48.10079" lon="-4.21193">
        <ele>104</ele>
        <time>2021-09-23T12:29:56Z</time>
      </trkpt>
      <trkpt lat="48.1008" lon="-4.21186">
        <ele>104.3</ele>
        <time>2021-09-23T12:29:59Z</time>
      </trkpt>
      <trkpt lat="48.10079" lon="-4.21177">
        <ele>104.8</ele>
        <time>2021-09-23T12:30:09Z</time>
      </trkpt>
      <trkpt lat="48.10078" lon="-4.21171">
        <ele>104.9</ele>
        <time>2021-09-23T12:30:12Z</time>
      </trkpt>
      <trkpt lat="48.10075" lon="-4.21166">
        <ele>104.8</ele>
        <time>2021-09-23T12:30:19Z</time>
      </trkpt>
      <trkpt lat="48.1007" lon="-4.21154">
        <ele>103.8</ele>
        <time>2021-09-23T12:30:40Z</time>
      </trkpt>
      <trkpt lat="48.10067" lon="-4.21146">
        <ele>103.5</ele>
        <time>2021-09-23T12:30:43Z</time>
      </trkpt>
      <trkpt lat="48.10065" lon="-4.2114">
        <ele>103</ele>
        <time>2021-09-23T12:30:46Z</time>
      </trkpt>
      <trkpt lat="48.10062" lon="-4.21133">
        <ele>102.7</ele>
        <time>2021-09-23T12:30:49Z</time>
      </trkpt>
      <trkpt lat="48.10059" lon="-4.21125">
        <ele>102.1</ele>
        <time>2021-09-23T12:30:53Z</time>
      </trkpt>
      <trkpt lat="48.10057" lon="-4.21117">
        <ele>101.4</ele>
        <time>2021-09-23T12:31:00Z</time>
      </trkpt>
      <trkpt lat="48.10053" lon="-4.2111">
        <ele>100.7</ele>
        <time>2021-09-23T12:31:03Z</time>
      </trkpt>
      <trkpt lat="48.1005" lon="-4.21105">
        <ele>99.9</ele>
        <time>2021-09-23T12:31:08Z</time>
      </trkpt>
      <trkpt lat="48.10046" lon="-4.21099">
        <ele>99.3</ele>
        <time>2021-09-23T12:31:14Z</time>
      </trkpt>
      <trkpt lat="48.10043" lon="-4.21094">
        <ele>98.9</ele>
        <time>2021-09-23T12:31:19Z</time>
      </trkpt>
      <trkpt lat="48.1004" lon="-4.21088">
        <ele>98.4</ele>
        <time>2021-09-23T12:31:24Z</time>
      </trkpt>
      <trkpt lat="48.1004" lon="-4.21076">
        <ele>97.5</ele>
        <time>2021-09-23T12:31:36Z</time>
      </trkpt>
      <trkpt lat="48.1004" lon="-4.2107">
        <ele>97.2</ele>
        <time>2021-09-23T12:31:39Z</time>
      </trkpt>
      <trkpt lat="48.10037" lon="-4.21062">
        <ele>97.1</ele>
        <time>2021-09-23T12:32:00Z</time>
      </trkpt>
      <trkpt lat="48.10034" lon="-4.21056">
        <ele>97.8</ele>
        <time>2021-09-23T12:32:05Z</time>
      </trkpt>
      <trkpt lat="48.10032" lon="-4.21049">
        <ele>100.1</ele>
        <time>2021-09-23T12:32:43Z</time>
      </trkpt>
      <trkpt lat="48.1003" lon="-4.21039">
        <ele>104.7</ele>
        <time>2021-09-23T12:34:33Z</time>
      </trkpt>
      <trkpt lat="48.10028" lon="-4.21033">
        <ele>105.1</ele>
        <time>2021-09-23T12:34:37Z</time>
      </trkpt>
      <trkpt lat="48.10027" lon="-4.21025">
        <ele>105.8</ele>
        <time>2021-09-23T12:34:44Z</time>
      </trkpt>
      <trkpt lat="48.10027" lon="-4.21016">
        <ele>107.4</ele>
        <time>2021-09-23T12:36:45Z</time>
      </trkpt>
      <trkpt lat="48.10028" lon="-4.21009">
        <ele>108.5</ele>
        <time>2021-09-23T12:36:49Z</time>
      </trkpt>
      <trkpt lat="48.10023" lon="-4.21012">
        <ele>109.8</ele>
        <time>2021-09-23T12:37:08Z</time>
      </trkpt>
      <trkpt lat="48.10024" lon="-4.21013">
        <ele>108</ele>
        <time>2021-09-23T12:37:45Z</time>
      </trkpt>
      <trkpt lat="48.10022" lon="-4.21006">
        <ele>108.3</ele>
        <time>2021-09-23T12:37:50Z</time>
      </trkpt>
      <trkpt lat="48.10026" lon="-4.21003">
        <ele>107</ele>
        <time>2021-09-23T12:39:01Z</time>
      </trkpt>
      <trkpt lat="48.1003" lon="-4.20999">
        <ele>106</ele>
        <time>2021-09-23T12:39:04Z</time>
      </trkpt>
      <trkpt lat="48.10025" lon="-4.20997">
        <ele>104.3</ele>
        <time>2021-09-23T12:40:35Z</time>
      </trkpt>
      <trkpt lat="48.1002" lon="-4.21007">
        <ele>105.6</ele>
        <time>2021-09-23T12:42:05Z</time>
      </trkpt>
      <trkpt lat="48.10018" lon="-4.21015">
        <ele>106.1</ele>
        <time>2021-09-23T12:42:08Z</time>
      </trkpt>
      <trkpt lat="48.10017" lon="-4.21022">
        <ele>106.5</ele>
        <time>2021-09-23T12:42:12Z</time>
      </trkpt>
      <trkpt lat="48.1001" lon="-4.21028">
        <ele>107.1</ele>
        <time>2021-09-23T12:42:23Z</time>
      </trkpt>
      <trkpt lat="48.10005" lon="-4.2103">
        <ele>107.3</ele>
        <time>2021-09-23T12:42:26Z</time>
      </trkpt>
      <trkpt lat="48.09998" lon="-4.21031">
        <ele>108.4</ele>
        <time>2021-09-23T12:42:41Z</time>
      </trkpt>
      <trkpt lat="48.09993" lon="-4.21031">
        <ele>108.9</ele>
        <time>2021-09-23T12:42:44Z</time>
      </trkpt>
      <trkpt lat="48.09988" lon="-4.21029">
        <ele>109.5</ele>
        <time>2021-09-23T12:42:50Z</time>
      </trkpt>
      <trkpt lat="48.09983" lon="-4.2103">
        <ele>109.5</ele>
        <time>2021-09-23T12:42:57Z</time>
      </trkpt>
      <trkpt lat="48.09979" lon="-4.21034">
        <ele>108.4</ele>
        <time>2021-09-23T12:43:09Z</time>
      </trkpt>
      <trkpt lat="48.09974" lon="-4.21036">
        <ele>107.5</ele>
        <time>2021-09-23T12:43:12Z</time>
      </trkpt>
      <trkpt lat="48.09967" lon="-4.21033">
        <ele>106.6</ele>
        <time>2021-09-23T12:43:24Z</time>
      </trkpt>
      <trkpt lat="48.09962" lon="-4.2103">
        <ele>107.2</ele>
        <time>2021-09-23T12:43:27Z</time>
      </trkpt>
      <trkpt lat="48.09956" lon="-4.21027">
        <ele>110.2</ele>
        <time>2021-09-23T12:43:47Z</time>
      </trkpt>
      <trkpt lat="48.09951" lon="-4.21025">
        <ele>113.4</ele>
        <time>2021-09-23T12:43:54Z</time>
      </trkpt>
      <trkpt lat="48.09946" lon="-4.21024">
        <ele>116.3</ele>
        <time>2021-09-23T12:44:02Z</time>
      </trkpt>
      <trkpt lat="48.09942" lon="-4.21022">
        <ele>118.3</ele>
        <time>2021-09-23T12:44:06Z</time>
      </trkpt>
      <trkpt lat="48.09937" lon="-4.2102">
        <ele>120</ele>
        <time>2021-09-23T12:44:11Z</time>
      </trkpt>
      <trkpt lat="48.09932" lon="-4.21019">
        <ele>120.8</ele>
        <time>2021-09-23T12:44:14Z</time>
      </trkpt>
      <trkpt lat="48.09925" lon="-4.2102">
        <ele>122.3</ele>
        <time>2021-09-23T12:44:27Z</time>
      </trkpt>
      <trkpt lat="48.09921" lon="-4.21021">
        <ele>122.8</ele>
        <time>2021-09-23T12:44:34Z</time>
      </trkpt>
      <trkpt lat="48.09916" lon="-4.21019">
        <ele>123.5</ele>
        <time>2021-09-23T12:44:39Z</time>
      </trkpt>
      <trkpt lat="48.09912" lon="-4.21016">
        <ele>123.9</ele>
        <time>2021-09-23T12:44:42Z</time>
      </trkpt>
      <trkpt lat="48.09908" lon="-4.21012">
        <ele>124.6</ele>
        <time>2021-09-23T12:44:47Z</time>
      </trkpt>
      <trkpt lat="48.09902" lon="-4.21005">
        <ele>126.6</ele>
        <time>2021-09-23T12:44:59Z</time>
      </trkpt>
      <trkpt lat="48.09899" lon="-4.21">
        <ele>127.3</ele>
        <time>2021-09-23T12:45:02Z</time>
      </trkpt>
      <trkpt lat="48.09894" lon="-4.20997">
        <ele>128.5</ele>
        <time>2021-09-23T12:45:07Z</time>
      </trkpt>
      <trkpt lat="48.0989" lon="-4.20995">
        <ele>129.3</ele>
        <time>2021-09-23T12:45:12Z</time>
      </trkpt>
      <trkpt lat="48.09886" lon="-4.20991">
        <ele>129.9</ele>
        <time>2021-09-23T12:45:18Z</time>
      </trkpt>
      <trkpt lat="48.09882" lon="-4.20986">
        <ele>130.6</ele>
        <time>2021-09-23T12:45:27Z</time>
      </trkpt>
      <trkpt lat="48.09877" lon="-4.2098">
        <ele>131</ele>
        <time>2021-09-23T12:45:30Z</time>
      </trkpt>
      <trkpt lat="48.09872" lon="-4.20975">
        <ele>131.5</ele>
        <time>2021-09-23T12:45:34Z</time>
      </trkpt>
      <trkpt lat="48.09865" lon="-4.20972">
        <ele>132.5</ele>
        <time>2021-09-23T12:45:42Z</time>
      </trkpt>
      <trkpt lat="48.09861" lon="-4.20969">
        <ele>133</ele>
        <time>2021-09-23T12:45:45Z</time>
      </trkpt>
      <trkpt lat="48.0986" lon="-4.20962">
        <ele>134.9</ele>
        <time>2021-09-23T12:46:54Z</time>
      </trkpt>
      <trkpt lat="48.09855" lon="-4.20963">
        <ele>134.6</ele>
        <time>2021-09-23T12:46:58Z</time>
      </trkpt>
      <trkpt lat="48.09849" lon="-4.20962">
        <ele>136.1</ele>
        <time>2021-09-23T12:48:27Z</time>
      </trkpt>
      <trkpt lat="48.09844" lon="-4.20964">
        <ele>138</ele>
        <time>2021-09-23T12:48:31Z</time>
      </trkpt>
      <trkpt lat="48.0984" lon="-4.20969">
        <ele>139.3</ele>
        <time>2021-09-23T12:48:35Z</time>
      </trkpt>
      <trkpt lat="48.09836" lon="-4.20973">
        <ele>140</ele>
        <time>2021-09-23T12:48:38Z</time>
      </trkpt>
      <trkpt lat="48.09834" lon="-4.20979">
        <ele>141</ele>
        <time>2021-09-23T12:48:45Z</time>
      </trkpt>
      <trkpt lat="48.09831" lon="-4.20985">
        <ele>141.1</ele>
        <time>2021-09-23T12:49:03Z</time>
      </trkpt>
      <trkpt lat="48.09828" lon="-4.20992">
        <ele>140.7</ele>
        <time>2021-09-23T12:49:06Z</time>
      </trkpt>
      <trkpt lat="48.09827" lon="-4.21">
        <ele>140.2</ele>
        <time>2021-09-23T12:49:10Z</time>
      </trkpt>
      <trkpt lat="48.09826" lon="-4.21006">
        <ele>140.2</ele>
        <time>2021-09-23T12:49:15Z</time>
      </trkpt>
      <trkpt lat="48.09823" lon="-4.21013">
        <ele>140.5</ele>
        <time>2021-09-23T12:49:21Z</time>
      </trkpt>
      <trkpt lat="48.09821" lon="-4.2102">
        <ele>140.8</ele>
        <time>2021-09-23T12:49:27Z</time>
      </trkpt>
      <trkpt lat="48.09818" lon="-4.21026">
        <ele>141.4</ele>
        <time>2021-09-23T12:49:34Z</time>
      </trkpt>
      <trkpt lat="48.09815" lon="-4.21031">
        <ele>141.6</ele>
        <time>2021-09-23T12:49:37Z</time>
      </trkpt>
      <trkpt lat="48.0981" lon="-4.21033">
        <ele>142.2</ele>
        <time>2021-09-23T12:49:41Z</time>
      </trkpt>
      <trkpt lat="48.09802" lon="-4.21037">
        <ele>143.3</ele>
        <time>2021-09-23T12:49:56Z</time>
      </trkpt>
      <trkpt lat="48.09797" lon="-4.21037">
        <ele>143.6</ele>
        <time>2021-09-23T12:49:59Z</time>
      </trkpt>
      <trkpt lat="48.09793" lon="-4.21043">
        <ele>143.5</ele>
        <time>2021-09-23T12:52:46Z</time>
      </trkpt>
      <trkpt lat="48.0979" lon="-4.21049">
        <ele>142.6</ele>
        <time>2021-09-23T12:52:49Z</time>
      </trkpt>
      <trkpt lat="48.09787" lon="-4.21055">
        <ele>140.9</ele>
        <time>2021-09-23T12:52:54Z</time>
      </trkpt>
      <trkpt lat="48.09782" lon="-4.21055">
        <ele>138.4</ele>
        <time>2021-09-23T12:52:59Z</time>
      </trkpt>
      <trkpt lat="48.09778" lon="-4.21051">
        <ele>136.3</ele>
        <time>2021-09-23T12:53:05Z</time>
      </trkpt>
      <trkpt lat="48.09773" lon="-4.2105">
        <ele>135.8</ele>
        <time>2021-09-23T12:53:13Z</time>
      </trkpt>
      <trkpt lat="48.09768" lon="-4.21047">
        <ele>135.9</ele>
        <time>2021-09-23T12:53:17Z</time>
      </trkpt>
      <trkpt lat="48.09763" lon="-4.21045">
        <ele>136.2</ele>
        <time>2021-09-23T12:53:21Z</time>
      </trkpt>
      <trkpt lat="48.09759" lon="-4.21041">
        <ele>136.4</ele>
        <time>2021-09-23T12:53:26Z</time>
      </trkpt>
      <trkpt lat="48.09758" lon="-4.21033">
        <ele>136.5</ele>
        <time>2021-09-23T12:53:32Z</time>
      </trkpt>
      <trkpt lat="48.09756" lon="-4.21026">
        <ele>136.4</ele>
        <time>2021-09-23T12:53:36Z</time>
      </trkpt>
      <trkpt lat="48.09755" lon="-4.21018">
        <ele>136.3</ele>
        <time>2021-09-23T12:53:41Z</time>
      </trkpt>
      <trkpt lat="48.09756" lon="-4.2101">
        <ele>136.1</ele>
        <time>2021-09-23T12:53:45Z</time>
      </trkpt>
      <trkpt lat="48.09756" lon="-4.21002">
        <ele>135.8</ele>
        <time>2021-09-23T12:53:50Z</time>
      </trkpt>
      <trkpt lat="48.09758" lon="-4.20995">
        <ele>135.7</ele>
        <time>2021-09-23T12:53:55Z</time>
      </trkpt>
      <trkpt lat="48.09759" lon="-4.20987">
        <ele>135.2</ele>
        <time>2021-09-23T12:54:00Z</time>
      </trkpt>
      <trkpt lat="48.0976" lon="-4.2098">
        <ele>134.9</ele>
        <time>2021-09-23T12:54:04Z</time>
      </trkpt>
      <trkpt lat="48.09759" lon="-4.20972">
        <ele>134.8</ele>
        <time>2021-09-23T12:54:09Z</time>
      </trkpt>
      <trkpt lat="48.09754" lon="-4.20964">
        <ele>136.1</ele>
        <time>2021-09-23T12:55:19Z</time>
      </trkpt>
      <trkpt lat="48.09749" lon="-4.20959">
        <ele>137.2</ele>
        <time>2021-09-23T12:55:22Z</time>
      </trkpt>
      <trkpt lat="48.09745" lon="-4.20956">
        <ele>138.3</ele>
        <time>2021-09-23T12:55:26Z</time>
      </trkpt>
      <trkpt lat="48.09741" lon="-4.20953">
        <ele>139.1</ele>
        <time>2021-09-23T12:55:31Z</time>
      </trkpt>
      <trkpt lat="48.09736" lon="-4.2095">
        <ele>139.6</ele>
        <time>2021-09-23T12:55:35Z</time>
      </trkpt>
      <trkpt lat="48.09728" lon="-4.20946">
        <ele>142.1</ele>
        <time>2021-09-23T12:55:50Z</time>
      </trkpt>
      <trkpt lat="48.09723" lon="-4.20945">
        <ele>143.7</ele>
        <time>2021-09-23T12:55:54Z</time>
      </trkpt>
      <trkpt lat="48.09726" lon="-4.20938">
        <ele>146.1</ele>
        <time>2021-09-23T12:56:22Z</time>
      </trkpt>
      <trkpt lat="48.09729" lon="-4.20933">
        <ele>146.1</ele>
        <time>2021-09-23T12:56:26Z</time>
      </trkpt>
      <trkpt lat="48.09731" lon="-4.20925">
        <ele>144.9</ele>
        <time>2021-09-23T12:56:43Z</time>
      </trkpt>
      <trkpt lat="48.09733" lon="-4.20919">
        <ele>144</ele>
        <time>2021-09-23T12:56:47Z</time>
      </trkpt>
      <trkpt lat="48.09731" lon="-4.20927">
        <ele>143.5</ele>
        <time>2021-09-23T12:58:08Z</time>
      </trkpt>
      <trkpt lat="48.09728" lon="-4.20933">
        <ele>144.3</ele>
        <time>2021-09-23T12:58:12Z</time>
      </trkpt>
      <trkpt lat="48.09726" lon="-4.2094">
        <ele>145.2</ele>
        <time>2021-09-23T12:58:37Z</time>
      </trkpt>
      <trkpt lat="48.09723" lon="-4.20945">
        <ele>145.2</ele>
        <time>2021-09-23T12:58:40Z</time>
      </trkpt>
      <trkpt lat="48.09717" lon="-4.20948">
        <ele>145.3</ele>
        <time>2021-09-23T12:58:54Z</time>
      </trkpt>
      <trkpt lat="48.09711" lon="-4.20948">
        <ele>145.3</ele>
        <time>2021-09-23T12:58:57Z</time>
      </trkpt>
      <trkpt lat="48.09704" lon="-4.20947">
        <ele>145.2</ele>
        <time>2021-09-23T12:59:08Z</time>
      </trkpt>
      <trkpt lat="48.09699" lon="-4.20947">
        <ele>145.1</ele>
        <time>2021-09-23T12:59:11Z</time>
      </trkpt>
      <trkpt lat="48.09693" lon="-4.20944">
        <ele>144.8</ele>
        <time>2021-09-23T12:59:26Z</time>
      </trkpt>
      <trkpt lat="48.09687" lon="-4.20941">
        <ele>144.6</ele>
        <time>2021-09-23T12:59:29Z</time>
      </trkpt>
      <trkpt lat="48.09682" lon="-4.20941">
        <ele>144.7</ele>
        <time>2021-09-23T12:59:32Z</time>
      </trkpt>
      <trkpt lat="48.09676" lon="-4.20936">
        <ele>145.7</ele>
        <time>2021-09-23T12:59:49Z</time>
      </trkpt>
      <trkpt lat="48.09675" lon="-4.20929">
        <ele>146.6</ele>
        <time>2021-09-23T12:59:53Z</time>
      </trkpt>
      <trkpt lat="48.09673" lon="-4.20922">
        <ele>147.7</ele>
        <time>2021-09-23T12:59:58Z</time>
      </trkpt>
      <trkpt lat="48.09673" lon="-4.20914">
        <ele>148.2</ele>
        <time>2021-09-23T13:00:15Z</time>
      </trkpt>
      <trkpt lat="48.09672" lon="-4.20907">
        <ele>148</ele>
        <time>2021-09-23T13:00:18Z</time>
      </trkpt>
      <trkpt lat="48.09667" lon="-4.20904">
        <ele>148.4</ele>
        <time>2021-09-23T13:00:25Z</time>
      </trkpt>
      <trkpt lat="48.09663" lon="-4.20907">
        <ele>150.2</ele>
        <time>2021-09-23T13:00:32Z</time>
      </trkpt>
      <trkpt lat="48.09659" lon="-4.20911">
        <ele>151.6</ele>
        <time>2021-09-23T13:00:37Z</time>
      </trkpt>
      <trkpt lat="48.09655" lon="-4.20914">
        <ele>152.7</ele>
        <time>2021-09-23T13:00:43Z</time>
      </trkpt>
      <trkpt lat="48.0965" lon="-4.20916">
        <ele>152.9</ele>
        <time>2021-09-23T13:01:11Z</time>
      </trkpt>
      <trkpt lat="48.09645" lon="-4.20918">
        <ele>152.3</ele>
        <time>2021-09-23T13:01:15Z</time>
      </trkpt>
      <trkpt lat="48.09641" lon="-4.20922">
        <ele>152.1</ele>
        <time>2021-09-23T13:01:36Z</time>
      </trkpt>
      <trkpt lat="48.09638" lon="-4.20929">
        <ele>154.2</ele>
        <time>2021-09-23T13:01:57Z</time>
      </trkpt>
      <trkpt lat="48.09633" lon="-4.20936">
        <ele>155.1</ele>
        <time>2021-09-23T13:02:00Z</time>
      </trkpt>
      <trkpt lat="48.09637" lon="-4.20939">
        <ele>155.3</ele>
        <time>2021-09-23T13:02:18Z</time>
      </trkpt>
      <trkpt lat="48.09633" lon="-4.20935">
        <ele>154.7</ele>
        <time>2021-09-23T13:02:27Z</time>
      </trkpt>
      <trkpt lat="48.09627" lon="-4.20938">
        <ele>155.1</ele>
        <time>2021-09-23T13:02:48Z</time>
      </trkpt>
      <trkpt lat="48.09622" lon="-4.2094">
        <ele>155.1</ele>
        <time>2021-09-23T13:02:51Z</time>
      </trkpt>
      <trkpt lat="48.09617" lon="-4.20938">
        <ele>155.5</ele>
        <time>2021-09-23T13:02:57Z</time>
      </trkpt>
      <trkpt lat="48.0961" lon="-4.20942">
        <ele>154.9</ele>
        <time>2021-09-23T13:03:14Z</time>
      </trkpt>
      <trkpt lat="48.09604" lon="-4.20944">
        <ele>154.1</ele>
        <time>2021-09-23T13:03:17Z</time>
      </trkpt>
      <trkpt lat="48.09599" lon="-4.20949">
        <ele>153.5</ele>
        <time>2021-09-23T13:03:20Z</time>
      </trkpt>
      <trkpt lat="48.09596" lon="-4.20955">
        <ele>152.9</ele>
        <time>2021-09-23T13:03:24Z</time>
      </trkpt>
      <trkpt lat="48.09589" lon="-4.20957">
        <ele>151.3</ele>
        <time>2021-09-23T13:03:34Z</time>
      </trkpt>
      <trkpt lat="48.09583" lon="-4.20959">
        <ele>150.6</ele>
        <time>2021-09-23T13:03:44Z</time>
      </trkpt>
      <trkpt lat="48.09579" lon="-4.20963">
        <ele>150.3</ele>
        <time>2021-09-23T13:03:48Z</time>
      </trkpt>
      <trkpt lat="48.09573" lon="-4.20966">
        <ele>149.6</ele>
        <time>2021-09-23T13:03:53Z</time>
      </trkpt>
      <trkpt lat="48.09569" lon="-4.20966">
        <ele>148.7</ele>
        <time>2021-09-23T13:03:58Z</time>
      </trkpt>
      <trkpt lat="48.09563" lon="-4.20968">
        <ele>148</ele>
        <time>2021-09-23T13:04:01Z</time>
      </trkpt>
      <trkpt lat="48.09559" lon="-4.20979">
        <ele>146.1</ele>
        <time>2021-09-23T13:04:20Z</time>
      </trkpt>
      <trkpt lat="48.09556" lon="-4.20985">
        <ele>146.1</ele>
        <time>2021-09-23T13:04:23Z</time>
      </trkpt>
      <trkpt lat="48.0955" lon="-4.20987">
        <ele>146.1</ele>
        <time>2021-09-23T13:04:31Z</time>
      </trkpt>
      <trkpt lat="48.09546" lon="-4.20987">
        <ele>146.1</ele>
        <time>2021-09-23T13:04:34Z</time>
      </trkpt>
      <trkpt lat="48.09539" lon="-4.20985">
        <ele>145.9</ele>
        <time>2021-09-23T13:04:48Z</time>
      </trkpt>
      <trkpt lat="48.09535" lon="-4.20983">
        <ele>145.7</ele>
        <time>2021-09-23T13:04:51Z</time>
      </trkpt>
      <trkpt lat="48.0953" lon="-4.20982">
        <ele>145.4</ele>
        <time>2021-09-23T13:04:56Z</time>
      </trkpt>
      <trkpt lat="48.09525" lon="-4.20984">
        <ele>144.8</ele>
        <time>2021-09-23T13:05:06Z</time>
      </trkpt>
      <trkpt lat="48.0952" lon="-4.20983">
        <ele>143.9</ele>
        <time>2021-09-23T13:05:11Z</time>
      </trkpt>
      <trkpt lat="48.09515" lon="-4.20985">
        <ele>143.6</ele>
        <time>2021-09-23T13:05:16Z</time>
      </trkpt>
      <trkpt lat="48.09511" lon="-4.20988">
        <ele>144</ele>
        <time>2021-09-23T13:05:19Z</time>
      </trkpt>
      <trkpt lat="48.09504" lon="-4.20991">
        <ele>145</ele>
        <time>2021-09-23T13:05:28Z</time>
      </trkpt>
      <trkpt lat="48.095" lon="-4.20992">
        <ele>145.5</ele>
        <time>2021-09-23T13:05:31Z</time>
      </trkpt>
      <trkpt lat="48.09495" lon="-4.20993">
        <ele>146</ele>
        <time>2021-09-23T13:05:35Z</time>
      </trkpt>
      <trkpt lat="48.0949" lon="-4.20991">
        <ele>146</ele>
        <time>2021-09-23T13:05:38Z</time>
      </trkpt>
      <trkpt lat="48.09486" lon="-4.20991">
        <ele>146</ele>
        <time>2021-09-23T13:05:41Z</time>
      </trkpt>
      <trkpt lat="48.09481" lon="-4.2099">
        <ele>146.1</ele>
        <time>2021-09-23T13:05:45Z</time>
      </trkpt>
      <trkpt lat="48.09476" lon="-4.20987">
        <ele>146.9</ele>
        <time>2021-09-23T13:05:57Z</time>
      </trkpt>
      <trkpt lat="48.09472" lon="-4.20982">
        <ele>147.7</ele>
        <time>2021-09-23T13:06:00Z</time>
      </trkpt>
      <trkpt lat="48.09466" lon="-4.20978">
        <ele>148.4</ele>
        <time>2021-09-23T13:06:11Z</time>
      </trkpt>
      <trkpt lat="48.0946" lon="-4.20978">
        <ele>148</ele>
        <time>2021-09-23T13:06:14Z</time>
      </trkpt>
      <trkpt lat="48.09453" lon="-4.20978">
        <ele>147.7</ele>
        <time>2021-09-23T13:06:21Z</time>
      </trkpt>
      <trkpt lat="48.09448" lon="-4.20978">
        <ele>147.9</ele>
        <time>2021-09-23T13:06:24Z</time>
      </trkpt>
      <trkpt lat="48.09441" lon="-4.20979">
        <ele>148.3</ele>
        <time>2021-09-23T13:06:39Z</time>
      </trkpt>
      <trkpt lat="48.09436" lon="-4.20979">
        <ele>148.2</ele>
        <time>2021-09-23T13:06:42Z</time>
      </trkpt>
      <trkpt lat="48.09431" lon="-4.20978">
        <ele>148.2</ele>
        <time>2021-09-23T13:06:46Z</time>
      </trkpt>
      <trkpt lat="48.09424" lon="-4.20977">
        <ele>148.6</ele>
        <time>2021-09-23T13:06:49Z</time>
      </trkpt>
      <trkpt lat="48.09416" lon="-4.20975">
        <ele>149.4</ele>
        <time>2021-09-23T13:06:55Z</time>
      </trkpt>
      <trkpt lat="48.09409" lon="-4.20975">
        <ele>150.2</ele>
        <time>2021-09-23T13:06:58Z</time>
      </trkpt>
      <trkpt lat="48.09404" lon="-4.20976">
        <ele>151.2</ele>
        <time>2021-09-23T13:07:02Z</time>
      </trkpt>
      <trkpt lat="48.09399" lon="-4.20976">
        <ele>152</ele>
        <time>2021-09-23T13:07:06Z</time>
      </trkpt>
      <trkpt lat="48.09394" lon="-4.20977">
        <ele>152.5</ele>
        <time>2021-09-23T13:07:09Z</time>
      </trkpt>
      <trkpt lat="48.09387" lon="-4.20975">
        <ele>154.2</ele>
        <time>2021-09-23T13:07:48Z</time>
      </trkpt>
      <trkpt lat="48.09382" lon="-4.20973">
        <ele>154.6</ele>
        <time>2021-09-23T13:07:51Z</time>
      </trkpt>
      <trkpt lat="48.09375" lon="-4.20973">
        <ele>155.7</ele>
        <time>2021-09-23T13:08:35Z</time>
      </trkpt>
      <trkpt lat="48.09371" lon="-4.20973">
        <ele>156</ele>
        <time>2021-09-23T13:08:40Z</time>
      </trkpt>
      <trkpt lat="48.09376" lon="-4.20973">
        <ele>158.3</ele>
        <time>2021-09-23T13:10:26Z</time>
      </trkpt>
      <trkpt lat="48.09371" lon="-4.20971">
        <ele>161.8</ele>
        <time>2021-09-23T13:11:20Z</time>
      </trkpt>
      <trkpt lat="48.09369" lon="-4.20965">
        <ele>161.6</ele>
        <time>2021-09-23T13:12:17Z</time>
      </trkpt>
      <trkpt lat="48.09369" lon="-4.20958">
        <ele>161.7</ele>
        <time>2021-09-23T13:12:20Z</time>
      </trkpt>
      <trkpt lat="48.0937" lon="-4.20948">
        <ele>161.9</ele>
        <time>2021-09-23T13:12:37Z</time>
      </trkpt>
      <trkpt lat="48.09369" lon="-4.20941">
        <ele>161.8</ele>
        <time>2021-09-23T13:12:41Z</time>
      </trkpt>
      <trkpt lat="48.0937" lon="-4.20932">
        <ele>161.8</ele>
        <time>2021-09-23T13:12:56Z</time>
      </trkpt>
      <trkpt lat="48.0937" lon="-4.20925">
        <ele>161.9</ele>
        <time>2021-09-23T13:12:59Z</time>
      </trkpt>
      <trkpt lat="48.09373" lon="-4.20916">
        <ele>162.3</ele>
        <time>2021-09-23T13:13:17Z</time>
      </trkpt>
      <trkpt lat="48.09374" lon="-4.20909">
        <ele>162</ele>
        <time>2021-09-23T13:13:21Z</time>
      </trkpt>
      <trkpt lat="48.09375" lon="-4.20901">
        <ele>162.3</ele>
        <time>2021-09-23T13:13:34Z</time>
      </trkpt>
      <trkpt lat="48.09376" lon="-4.20892">
        <ele>162.6</ele>
        <time>2021-09-23T13:13:37Z</time>
      </trkpt>
      <trkpt lat="48.09377" lon="-4.20882">
        <ele>162.8</ele>
        <time>2021-09-23T13:13:46Z</time>
      </trkpt>
      <trkpt lat="48.09378" lon="-4.20876">
        <ele>162.7</ele>
        <time>2021-09-23T13:13:49Z</time>
      </trkpt>
      <trkpt lat="48.0938" lon="-4.20866">
        <ele>162.7</ele>
        <time>2021-09-23T13:13:59Z</time>
      </trkpt>
      <trkpt lat="48.09382" lon="-4.2086">
        <ele>162.9</ele>
        <time>2021-09-23T13:14:03Z</time>
      </trkpt>
      <trkpt lat="48.09382" lon="-4.20851">
        <ele>163.4</ele>
        <time>2021-09-23T13:14:13Z</time>
      </trkpt>
      <trkpt lat="48.09382" lon="-4.20843">
        <ele>163.5</ele>
        <time>2021-09-23T13:14:16Z</time>
      </trkpt>
      <trkpt lat="48.09383" lon="-4.20833">
        <ele>163.8</ele>
        <time>2021-09-23T13:14:26Z</time>
      </trkpt>
      <trkpt lat="48.09384" lon="-4.20826">
        <ele>163.7</ele>
        <time>2021-09-23T13:14:29Z</time>
      </trkpt>
      <trkpt lat="48.09387" lon="-4.20816">
        <ele>163.3</ele>
        <time>2021-09-23T13:14:41Z</time>
      </trkpt>
      <trkpt lat="48.09388" lon="-4.20808">
        <ele>163.1</ele>
        <time>2021-09-23T13:14:44Z</time>
      </trkpt>
      <trkpt lat="48.09391" lon="-4.20801">
        <ele>163</ele>
        <time>2021-09-23T13:14:48Z</time>
      </trkpt>
      <trkpt lat="48.09394" lon="-4.20796">
        <ele>163.2</ele>
        <time>2021-09-23T13:14:53Z</time>
      </trkpt>
      <trkpt lat="48.09398" lon="-4.20792">
        <ele>163.3</ele>
        <time>2021-09-23T13:15:02Z</time>
      </trkpt>
      <trkpt lat="48.09402" lon="-4.20789">
        <ele>163.7</ele>
        <time>2021-09-23T13:15:05Z</time>
      </trkpt>
      <trkpt lat="48.09404" lon="-4.20781">
        <ele>164</ele>
        <time>2021-09-23T13:15:21Z</time>
      </trkpt>
      <trkpt lat="48.09403" lon="-4.20773">
        <ele>163.7</ele>
        <time>2021-09-23T13:15:24Z</time>
      </trkpt>
      <trkpt lat="48.09398" lon="-4.20768">
        <ele>164.3</ele>
        <time>2021-09-23T13:15:41Z</time>
      </trkpt>
      <trkpt lat="48.09392" lon="-4.20766">
        <ele>165.5</ele>
        <time>2021-09-23T13:15:44Z</time>
      </trkpt>
      <trkpt lat="48.09394" lon="-4.20773">
        <ele>169.9</ele>
        <time>2021-09-23T13:16:02Z</time>
      </trkpt>
      <trkpt lat="48.094" lon="-4.20778">
        <ele>171.2</ele>
        <time>2021-09-23T13:16:05Z</time>
      </trkpt>
      <trkpt lat="48.09404" lon="-4.20783">
        <ele>172.9</ele>
        <time>2021-09-23T13:16:10Z</time>
      </trkpt>
      <trkpt lat="48.09407" lon="-4.2079">
        <ele>174</ele>
        <time>2021-09-23T13:16:17Z</time>
      </trkpt>
      <trkpt lat="48.09412" lon="-4.20799">
        <ele>174.3</ele>
        <time>2021-09-23T13:16:28Z</time>
      </trkpt>
      <trkpt lat="48.09415" lon="-4.20803">
        <ele>174.5</ele>
        <time>2021-09-23T13:16:31Z</time>
      </trkpt>
      <trkpt lat="48.09421" lon="-4.20806">
        <ele>174.7</ele>
        <time>2021-09-23T13:16:35Z</time>
      </trkpt>
      <trkpt lat="48.09425" lon="-4.20807">
        <ele>174.7</ele>
        <time>2021-09-23T13:16:44Z</time>
      </trkpt>
      <trkpt lat="48.0943" lon="-4.20807">
        <ele>174.7</ele>
        <time>2021-09-23T13:16:47Z</time>
      </trkpt>
      <trkpt lat="48.09435" lon="-4.2081">
        <ele>174.9</ele>
        <time>2021-09-23T13:16:50Z</time>
      </trkpt>
      <trkpt lat="48.0944" lon="-4.20814">
        <ele>175.6</ele>
        <time>2021-09-23T13:16:55Z</time>
      </trkpt>
      <trkpt lat="48.09444" lon="-4.20818">
        <ele>176.3</ele>
        <time>2021-09-23T13:16:58Z</time>
      </trkpt>
      <trkpt lat="48.0945" lon="-4.20827">
        <ele>177</ele>
        <time>2021-09-23T13:17:01Z</time>
      </trkpt>
      <trkpt lat="48.09455" lon="-4.20832">
        <ele>177.4</ele>
        <time>2021-09-23T13:17:04Z</time>
      </trkpt>
      <trkpt lat="48.0946" lon="-4.20835">
        <ele>177.6</ele>
        <time>2021-09-23T13:17:07Z</time>
      </trkpt>
      <trkpt lat="48.09465" lon="-4.20834">
        <ele>178</ele>
        <time>2021-09-23T13:17:11Z</time>
      </trkpt>
      <trkpt lat="48.09472" lon="-4.20833">
        <ele>178.4</ele>
        <time>2021-09-23T13:17:21Z</time>
      </trkpt>
      <trkpt lat="48.09477" lon="-4.20834">
        <ele>178.7</ele>
        <time>2021-09-23T13:17:24Z</time>
      </trkpt>
      <trkpt lat="48.09481" lon="-4.20834">
        <ele>179.4</ele>
        <time>2021-09-23T13:17:28Z</time>
      </trkpt>
      <trkpt lat="48.09488" lon="-4.2083">
        <ele>180.7</ele>
        <time>2021-09-23T13:17:49Z</time>
      </trkpt>
      <trkpt lat="48.09492" lon="-4.20828">
        <ele>180.4</ele>
        <time>2021-09-23T13:17:52Z</time>
      </trkpt>
      <trkpt lat="48.09499" lon="-4.20828">
        <ele>179.5</ele>
        <time>2021-09-23T13:18:02Z</time>
      </trkpt>
      <trkpt lat="48.09504" lon="-4.20828">
        <ele>179.2</ele>
        <time>2021-09-23T13:18:05Z</time>
      </trkpt>
      <trkpt lat="48.09511" lon="-4.20827">
        <ele>179.3</ele>
        <time>2021-09-23T13:18:19Z</time>
      </trkpt>
      <trkpt lat="48.09516" lon="-4.20827">
        <ele>179.9</ele>
        <time>2021-09-23T13:18:22Z</time>
      </trkpt>
      <trkpt lat="48.09523" lon="-4.20826">
        <ele>181</ele>
        <time>2021-09-23T13:19:33Z</time>
      </trkpt>
      <trkpt lat="48.09528" lon="-4.20826">
        <ele>180.8</ele>
        <time>2021-09-23T13:19:36Z</time>
      </trkpt>
      <trkpt lat="48.09532" lon="-4.2082">
        <ele>180.9</ele>
        <time>2021-09-23T13:20:26Z</time>
      </trkpt>
      <trkpt lat="48.09536" lon="-4.20814">
        <ele>181.6</ele>
        <time>2021-09-23T13:20:29Z</time>
      </trkpt>
      <trkpt lat="48.09539" lon="-4.20804">
        <ele>182.7</ele>
        <time>2021-09-23T13:20:39Z</time>
      </trkpt>
      <trkpt lat="48.09542" lon="-4.20797">
        <ele>183</ele>
        <time>2021-09-23T13:20:42Z</time>
      </trkpt>
      <trkpt lat="48.09546" lon="-4.20789">
        <ele>183.6</ele>
        <time>2021-09-23T13:20:52Z</time>
      </trkpt>
      <trkpt lat="48.09549" lon="-4.20782">
        <ele>183.9</ele>
        <time>2021-09-23T13:20:55Z</time>
      </trkpt>
      <trkpt lat="48.09553" lon="-4.20775">
        <ele>184.2</ele>
        <time>2021-09-23T13:21:03Z</time>
      </trkpt>
      <trkpt lat="48.09557" lon="-4.20768">
        <ele>184.1</ele>
        <time>2021-09-23T13:21:06Z</time>
      </trkpt>
      <trkpt lat="48.0956" lon="-4.20762">
        <ele>184</ele>
        <time>2021-09-23T13:21:11Z</time>
      </trkpt>
      <trkpt lat="48.09562" lon="-4.20756">
        <ele>183.9</ele>
        <time>2021-09-23T13:21:16Z</time>
      </trkpt>
      <trkpt lat="48.09566" lon="-4.20751">
        <ele>183.6</ele>
        <time>2021-09-23T13:21:23Z</time>
      </trkpt>
      <trkpt lat="48.09571" lon="-4.20746">
        <ele>183</ele>
        <time>2021-09-23T13:21:26Z</time>
      </trkpt>
      <trkpt lat="48.09577" lon="-4.20741">
        <ele>181.9</ele>
        <time>2021-09-23T13:21:34Z</time>
      </trkpt>
      <trkpt lat="48.09581" lon="-4.20736">
        <ele>181.4</ele>
        <time>2021-09-23T13:21:37Z</time>
      </trkpt>
      <trkpt lat="48.09584" lon="-4.2073">
        <ele>180.8</ele>
        <time>2021-09-23T13:21:41Z</time>
      </trkpt>
      <trkpt lat="48.09587" lon="-4.20723">
        <ele>180.6</ele>
        <time>2021-09-23T13:21:45Z</time>
      </trkpt>
      <trkpt lat="48.0959" lon="-4.20718">
        <ele>180.7</ele>
        <time>2021-09-23T13:21:50Z</time>
      </trkpt>
      <trkpt lat="48.09593" lon="-4.20712">
        <ele>180.9</ele>
        <time>2021-09-23T13:21:54Z</time>
      </trkpt>
      <trkpt lat="48.09594" lon="-4.20704">
        <ele>181.5</ele>
        <time>2021-09-23T13:22:29Z</time>
      </trkpt>
      <trkpt lat="48.09594" lon="-4.20697">
        <ele>181.7</ele>
        <time>2021-09-23T13:22:33Z</time>
      </trkpt>
      <trkpt lat="48.09597" lon="-4.20692">
        <ele>182.3</ele>
        <time>2021-09-23T13:23:31Z</time>
      </trkpt>
      <trkpt lat="48.09601" lon="-4.20686">
        <ele>182.4</ele>
        <time>2021-09-23T13:23:34Z</time>
      </trkpt>
      <trkpt lat="48.09605" lon="-4.20681">
        <ele>182.5</ele>
        <time>2021-09-23T13:23:39Z</time>
      </trkpt>
      <trkpt lat="48.0961" lon="-4.2068">
        <ele>182.2</ele>
        <time>2021-09-23T13:25:35Z</time>
      </trkpt>
      <trkpt lat="48.09615" lon="-4.20681">
        <ele>182.1</ele>
        <time>2021-09-23T13:25:39Z</time>
      </trkpt>
      <trkpt lat="48.09617" lon="-4.20673">
        <ele>182.3</ele>
        <time>2021-09-23T13:27:58Z</time>
      </trkpt>
      <trkpt lat="48.09619" lon="-4.20667">
        <ele>182.5</ele>
        <time>2021-09-23T13:28:03Z</time>
      </trkpt>
      <trkpt lat="48.09622" lon="-4.20661">
        <ele>182.4</ele>
        <time>2021-09-23T13:28:09Z</time>
      </trkpt>
      <trkpt lat="48.09625" lon="-4.20655">
        <ele>182.3</ele>
        <time>2021-09-23T13:28:12Z</time>
      </trkpt>
      <trkpt lat="48.0963" lon="-4.20644">
        <ele>182</ele>
        <time>2021-09-23T13:28:27Z</time>
      </trkpt>
      <trkpt lat="48.09632" lon="-4.20638">
        <ele>182</ele>
        <time>2021-09-23T13:28:30Z</time>
      </trkpt>
      <trkpt lat="48.09637" lon="-4.20631">
        <ele>181.8</ele>
        <time>2021-09-23T13:28:39Z</time>
      </trkpt>
      <trkpt lat="48.09642" lon="-4.20627">
        <ele>181.6</ele>
        <time>2021-09-23T13:28:42Z</time>
      </trkpt>
      <trkpt lat="48.09647" lon="-4.20619">
        <ele>180.9</ele>
        <time>2021-09-23T13:28:54Z</time>
      </trkpt>
      <trkpt lat="48.0965" lon="-4.20614">
        <ele>180.6</ele>
        <time>2021-09-23T13:28:57Z</time>
      </trkpt>
      <trkpt lat="48.09656" lon="-4.20607">
        <ele>179.8</ele>
        <time>2021-09-23T13:29:11Z</time>
      </trkpt>
      <trkpt lat="48.0966" lon="-4.20602">
        <ele>179.5</ele>
        <time>2021-09-23T13:29:14Z</time>
      </trkpt>
      <trkpt lat="48.09667" lon="-4.20596">
        <ele>178.7</ele>
        <time>2021-09-23T13:29:24Z</time>
      </trkpt>
      <trkpt lat="48.09671" lon="-4.20591">
        <ele>178.2</ele>
        <time>2021-09-23T13:29:27Z</time>
      </trkpt>
      <trkpt lat="48.09677" lon="-4.20584">
        <ele>176.5</ele>
        <time>2021-09-23T13:29:47Z</time>
      </trkpt>
      <trkpt lat="48.09681" lon="-4.2058">
        <ele>175.7</ele>
        <time>2021-09-23T13:29:50Z</time>
      </trkpt>
      <trkpt lat="48.09686" lon="-4.20576">
        <ele>174</ele>
        <time>2021-09-23T13:29:58Z</time>
      </trkpt>
      <trkpt lat="48.0969" lon="-4.20572">
        <ele>173.1</ele>
        <time>2021-09-23T13:30:01Z</time>
      </trkpt>
      <trkpt lat="48.09693" lon="-4.20565">
        <ele>172</ele>
        <time>2021-09-23T13:30:05Z</time>
      </trkpt>
      <trkpt lat="48.09695" lon="-4.20557">
        <ele>170.8</ele>
        <time>2021-09-23T13:30:11Z</time>
      </trkpt>
      <trkpt lat="48.09695" lon="-4.2055">
        <ele>169.8</ele>
        <time>2021-09-23T13:30:16Z</time>
      </trkpt>
      <trkpt lat="48.09692" lon="-4.20545">
        <ele>169</ele>
        <time>2021-09-23T13:31:34Z</time>
      </trkpt>
      <trkpt lat="48.09695" lon="-4.20536">
        <ele>169.4</ele>
        <time>2021-09-23T13:32:04Z</time>
      </trkpt>
      <trkpt lat="48.09701" lon="-4.20531">
        <ele>169.7</ele>
        <time>2021-09-23T13:32:07Z</time>
      </trkpt>
      <trkpt lat="48.09705" lon="-4.20526">
        <ele>170.2</ele>
        <time>2021-09-23T13:32:10Z</time>
      </trkpt>
      <trkpt lat="48.09706" lon="-4.20519">
        <ele>170.5</ele>
        <time>2021-09-23T13:32:13Z</time>
      </trkpt>
      <trkpt lat="48.09708" lon="-4.20511">
        <ele>170.6</ele>
        <time>2021-09-23T13:32:17Z</time>
      </trkpt>
      <trkpt lat="48.09708" lon="-4.20502">
        <ele>169.8</ele>
        <time>2021-09-23T13:32:34Z</time>
      </trkpt>
      <trkpt lat="48.09709" lon="-4.20495">
        <ele>168.8</ele>
        <time>2021-09-23T13:32:38Z</time>
      </trkpt>
      <trkpt lat="48.09713" lon="-4.2049">
        <ele>167.1</ele>
        <time>2021-09-23T13:32:48Z</time>
      </trkpt>
      <trkpt lat="48.09717" lon="-4.20484">
        <ele>165.9</ele>
        <time>2021-09-23T13:32:52Z</time>
      </trkpt>
      <trkpt lat="48.09713" lon="-4.2048">
        <ele>162.6</ele>
        <time>2021-09-23T13:33:05Z</time>
      </trkpt>
      <trkpt lat="48.09713" lon="-4.20472">
        <ele>160.9</ele>
        <time>2021-09-23T13:33:18Z</time>
      </trkpt>
      <trkpt lat="48.09711" lon="-4.20463">
        <ele>159.8</ele>
        <time>2021-09-23T13:33:31Z</time>
      </trkpt>
      <trkpt lat="48.09708" lon="-4.20456">
        <ele>159.7</ele>
        <time>2021-09-23T13:33:35Z</time>
      </trkpt>
      <trkpt lat="48.09708" lon="-4.20448">
        <ele>160</ele>
        <time>2021-09-23T13:33:50Z</time>
      </trkpt>
      <trkpt lat="48.09708" lon="-4.2044">
        <ele>160.2</ele>
        <time>2021-09-23T13:33:54Z</time>
      </trkpt>
      <trkpt lat="48.09706" lon="-4.20432">
        <ele>160.2</ele>
        <time>2021-09-23T13:34:08Z</time>
      </trkpt>
      <trkpt lat="48.09703" lon="-4.20426">
        <ele>159.9</ele>
        <time>2021-09-23T13:34:12Z</time>
      </trkpt>
      <trkpt lat="48.097" lon="-4.20418">
        <ele>159.6</ele>
        <time>2021-09-23T13:34:24Z</time>
      </trkpt>
      <trkpt lat="48.09698" lon="-4.2041">
        <ele>159.9</ele>
        <time>2021-09-23T13:34:27Z</time>
      </trkpt>
      <trkpt lat="48.09699" lon="-4.204">
        <ele>160.2</ele>
        <time>2021-09-23T13:34:48Z</time>
      </trkpt>
      <trkpt lat="48.097" lon="-4.20393">
        <ele>159.8</ele>
        <time>2021-09-23T13:34:52Z</time>
      </trkpt>
      <trkpt lat="48.09699" lon="-4.20384">
        <ele>159.2</ele>
        <time>2021-09-23T13:35:13Z</time>
      </trkpt>
      <trkpt lat="48.09697" lon="-4.20377">
        <ele>159.1</ele>
        <time>2021-09-23T13:35:17Z</time>
      </trkpt>
      <trkpt lat="48.09694" lon="-4.20371">
        <ele>158.6</ele>
        <time>2021-09-23T13:35:28Z</time>
      </trkpt>
      <trkpt lat="48.0969" lon="-4.20364">
        <ele>158.2</ele>
        <time>2021-09-23T13:35:31Z</time>
      </trkpt>
      <trkpt lat="48.09687" lon="-4.20359">
        <ele>157.6</ele>
        <time>2021-09-23T13:35:35Z</time>
      </trkpt>
      <trkpt lat="48.09683" lon="-4.20354">
        <ele>156.9</ele>
        <time>2021-09-23T13:35:39Z</time>
      </trkpt>
      <trkpt lat="48.09679" lon="-4.20347">
        <ele>155.6</ele>
        <time>2021-09-23T13:35:52Z</time>
      </trkpt>
      <trkpt lat="48.09674" lon="-4.20342">
        <ele>155</ele>
        <time>2021-09-23T13:35:55Z</time>
      </trkpt>
      <trkpt lat="48.09668" lon="-4.20335">
        <ele>153.9</ele>
        <time>2021-09-23T13:36:02Z</time>
      </trkpt>
      <trkpt lat="48.09665" lon="-4.2033">
        <ele>153.4</ele>
        <time>2021-09-23T13:36:05Z</time>
      </trkpt>
      <trkpt lat="48.09661" lon="-4.20322">
        <ele>152.3</ele>
        <time>2021-09-23T13:36:16Z</time>
      </trkpt>
      <trkpt lat="48.09659" lon="-4.20316">
        <ele>151.7</ele>
        <time>2021-09-23T13:36:21Z</time>
      </trkpt>
      <trkpt lat="48.09655" lon="-4.20311">
        <ele>150.9</ele>
        <time>2021-09-23T13:36:36Z</time>
      </trkpt>
      <trkpt lat="48.09651" lon="-4.20307">
        <ele>150.5</ele>
        <time>2021-09-23T13:36:39Z</time>
      </trkpt>
      <trkpt lat="48.09646" lon="-4.20299">
        <ele>149.7</ele>
        <time>2021-09-23T13:36:47Z</time>
      </trkpt>
      <trkpt lat="48.09642" lon="-4.20292">
        <ele>149.3</ele>
        <time>2021-09-23T13:36:50Z</time>
      </trkpt>
      <trkpt lat="48.09637" lon="-4.20285">
        <ele>148.9</ele>
        <time>2021-09-23T13:36:53Z</time>
      </trkpt>
      <trkpt lat="48.09632" lon="-4.20279">
        <ele>148.6</ele>
        <time>2021-09-23T13:36:56Z</time>
      </trkpt>
      <trkpt lat="48.09628" lon="-4.20276">
        <ele>148.3</ele>
        <time>2021-09-23T13:37:00Z</time>
      </trkpt>
      <trkpt lat="48.09624" lon="-4.2027">
        <ele>148.2</ele>
        <time>2021-09-23T13:37:07Z</time>
      </trkpt>
      <trkpt lat="48.0962" lon="-4.20262">
        <ele>148.1</ele>
        <time>2021-09-23T13:37:10Z</time>
      </trkpt>
      <trkpt lat="48.09615" lon="-4.20253">
        <ele>147.8</ele>
        <time>2021-09-23T13:37:20Z</time>
      </trkpt>
      <trkpt lat="48.09611" lon="-4.20248">
        <ele>147.5</ele>
        <time>2021-09-23T13:37:23Z</time>
      </trkpt>
      <trkpt lat="48.09606" lon="-4.20241">
        <ele>146.7</ele>
        <time>2021-09-23T13:37:40Z</time>
      </trkpt>
      <trkpt lat="48.09602" lon="-4.20235">
        <ele>146.5</ele>
        <time>2021-09-23T13:37:43Z</time>
      </trkpt>
      <trkpt lat="48.09597" lon="-4.20228">
        <ele>146</ele>
        <time>2021-09-23T13:37:56Z</time>
      </trkpt>
      <trkpt lat="48.09594" lon="-4.20222">
        <ele>145.7</ele>
        <time>2021-09-23T13:37:59Z</time>
      </trkpt>
      <trkpt lat="48.09587" lon="-4.2022">
        <ele>144.9</ele>
        <time>2021-09-23T13:38:17Z</time>
      </trkpt>
      <trkpt lat="48.09583" lon="-4.20216">
        <ele>144</ele>
        <time>2021-09-23T13:38:30Z</time>
      </trkpt>
      <trkpt lat="48.09585" lon="-4.2021">
        <ele>143.1</ele>
        <time>2021-09-23T13:38:45Z</time>
      </trkpt>
      <trkpt lat="48.09585" lon="-4.20203">
        <ele>142.4</ele>
        <time>2021-09-23T13:38:48Z</time>
      </trkpt>
      <trkpt lat="48.09584" lon="-4.20193">
        <ele>141.4</ele>
        <time>2021-09-23T13:38:58Z</time>
      </trkpt>
      <trkpt lat="48.09583" lon="-4.20184">
        <ele>141.4</ele>
        <time>2021-09-23T13:39:01Z</time>
      </trkpt>
      <trkpt lat="48.09581" lon="-4.20174">
        <ele>141.6</ele>
        <time>2021-09-23T13:39:13Z</time>
      </trkpt>
      <trkpt lat="48.09577" lon="-4.20166">
        <ele>141.6</ele>
        <time>2021-09-23T13:39:16Z</time>
      </trkpt>
      <trkpt lat="48.09573" lon="-4.20159">
        <ele>141.5</ele>
        <time>2021-09-23T13:39:19Z</time>
      </trkpt>
      <trkpt lat="48.0957" lon="-4.20153">
        <ele>141.4</ele>
        <time>2021-09-23T13:39:25Z</time>
      </trkpt>
      <trkpt lat="48.09567" lon="-4.20147">
        <ele>141.3</ele>
        <time>2021-09-23T13:39:33Z</time>
      </trkpt>
      <trkpt lat="48.09564" lon="-4.20141">
        <ele>141.2</ele>
        <time>2021-09-23T13:39:36Z</time>
      </trkpt>
      <trkpt lat="48.0956" lon="-4.20132">
        <ele>140.7</ele>
        <time>2021-09-23T13:39:44Z</time>
      </trkpt>
      <trkpt lat="48.09558" lon="-4.20127">
        <ele>140.2</ele>
        <time>2021-09-23T13:39:47Z</time>
      </trkpt>
      <trkpt lat="48.09555" lon="-4.20119">
        <ele>138.8</ele>
        <time>2021-09-23T13:40:00Z</time>
      </trkpt>
      <trkpt lat="48.09551" lon="-4.20113">
        <ele>138.1</ele>
        <time>2021-09-23T13:40:03Z</time>
      </trkpt>
      <trkpt lat="48.09545" lon="-4.20105">
        <ele>136.8</ele>
        <time>2021-09-23T13:40:11Z</time>
      </trkpt>
      <trkpt lat="48.0954" lon="-4.20095">
        <ele>136.6</ele>
        <time>2021-09-23T13:40:14Z</time>
      </trkpt>
      <trkpt lat="48.09536" lon="-4.20085">
        <ele>136.5</ele>
        <time>2021-09-23T13:40:21Z</time>
      </trkpt>
      <trkpt lat="48.09532" lon="-4.20079">
        <ele>136.6</ele>
        <time>2021-09-23T13:40:24Z</time>
      </trkpt>
      <trkpt lat="48.09528" lon="-4.2007">
        <ele>136.8</ele>
        <time>2021-09-23T13:40:36Z</time>
      </trkpt>
      <trkpt lat="48.09526" lon="-4.20064">
        <ele>136.7</ele>
        <time>2021-09-23T13:40:39Z</time>
      </trkpt>
      <trkpt lat="48.09521" lon="-4.20055">
        <ele>136.6</ele>
        <time>2021-09-23T13:40:46Z</time>
      </trkpt>
      <trkpt lat="48.09517" lon="-4.20048">
        <ele>136.3</ele>
        <time>2021-09-23T13:40:49Z</time>
      </trkpt>
      <trkpt lat="48.0951" lon="-4.20038">
        <ele>135.5</ele>
        <time>2021-09-23T13:41:00Z</time>
      </trkpt>
      <trkpt lat="48.09507" lon="-4.20032">
        <ele>135</ele>
        <time>2021-09-23T13:41:04Z</time>
      </trkpt>
      <trkpt lat="48.09504" lon="-4.20025">
        <ele>134</ele>
        <time>2021-09-23T13:41:21Z</time>
      </trkpt>
      <trkpt lat="48.09502" lon="-4.20018">
        <ele>133.1</ele>
        <time>2021-09-23T13:41:25Z</time>
      </trkpt>
      <trkpt lat="48.09503" lon="-4.2001">
        <ele>130.9</ele>
        <time>2021-09-23T13:41:37Z</time>
      </trkpt>
      <trkpt lat="48.09506" lon="-4.20004">
        <ele>129.7</ele>
        <time>2021-09-23T13:41:40Z</time>
      </trkpt>
      <trkpt lat="48.09511" lon="-4.19997">
        <ele>127.1</ele>
        <time>2021-09-23T13:41:50Z</time>
      </trkpt>
      <trkpt lat="48.09513" lon="-4.1999">
        <ele>126.2</ele>
        <time>2021-09-23T13:41:53Z</time>
      </trkpt>
      <trkpt lat="48.09514" lon="-4.1998">
        <ele>125</ele>
        <time>2021-09-23T13:42:05Z</time>
      </trkpt>
      <trkpt lat="48.09516" lon="-4.19972">
        <ele>125.1</ele>
        <time>2021-09-23T13:42:08Z</time>
      </trkpt>
      <trkpt lat="48.09519" lon="-4.19961">
        <ele>125</ele>
        <time>2021-09-23T13:42:18Z</time>
      </trkpt>
      <trkpt lat="48.09521" lon="-4.19952">
        <ele>124.8</ele>
        <time>2021-09-23T13:42:21Z</time>
      </trkpt>
      <trkpt lat="48.09526" lon="-4.19946">
        <ele>124.4</ele>
        <time>2021-09-23T13:42:29Z</time>
      </trkpt>
      <trkpt lat="48.09531" lon="-4.19942">
        <ele>124.3</ele>
        <time>2021-09-23T13:42:32Z</time>
      </trkpt>
      <trkpt lat="48.09536" lon="-4.19939">
        <ele>124.2</ele>
        <time>2021-09-23T13:42:36Z</time>
      </trkpt>
      <trkpt lat="48.09541" lon="-4.19931">
        <ele>124.1</ele>
        <time>2021-09-23T13:42:39Z</time>
      </trkpt>
      <trkpt lat="48.09543" lon="-4.19925">
        <ele>124.2</ele>
        <time>2021-09-23T13:42:42Z</time>
      </trkpt>
      <trkpt lat="48.09547" lon="-4.19916">
        <ele>124.7</ele>
        <time>2021-09-23T13:42:53Z</time>
      </trkpt>
      <trkpt lat="48.09549" lon="-4.1991">
        <ele>125.2</ele>
        <time>2021-09-23T13:42:56Z</time>
      </trkpt>
      <trkpt lat="48.09553" lon="-4.19901">
        <ele>126.6</ele>
        <time>2021-09-23T13:43:02Z</time>
      </trkpt>
      <trkpt lat="48.09557" lon="-4.19893">
        <ele>127.9</ele>
        <time>2021-09-23T13:43:05Z</time>
      </trkpt>
      <trkpt lat="48.09561" lon="-4.19887">
        <ele>129.6</ele>
        <time>2021-09-23T13:43:09Z</time>
      </trkpt>
      <trkpt lat="48.09563" lon="-4.19881">
        <ele>130.6</ele>
        <time>2021-09-23T13:43:12Z</time>
      </trkpt>
      <trkpt lat="48.09566" lon="-4.1987">
        <ele>133.3</ele>
        <time>2021-09-23T13:43:28Z</time>
      </trkpt>
      <trkpt lat="48.09568" lon="-4.19863">
        <ele>133.8</ele>
        <time>2021-09-23T13:43:31Z</time>
      </trkpt>
      <trkpt lat="48.09566" lon="-4.19854">
        <ele>134.9</ele>
        <time>2021-09-23T13:43:34Z</time>
      </trkpt>
      <trkpt lat="48.09562" lon="-4.19845">
        <ele>136</ele>
        <time>2021-09-23T13:43:37Z</time>
      </trkpt>
      <trkpt lat="48.09559" lon="-4.19835">
        <ele>137.1</ele>
        <time>2021-09-23T13:43:40Z</time>
      </trkpt>
      <trkpt lat="48.09557" lon="-4.19823">
        <ele>138.3</ele>
        <time>2021-09-23T13:43:43Z</time>
      </trkpt>
      <trkpt lat="48.09556" lon="-4.19816">
        <ele>139.8</ele>
        <time>2021-09-23T13:43:50Z</time>
      </trkpt>
      <trkpt lat="48.09555" lon="-4.19805">
        <ele>140.2</ele>
        <time>2021-09-23T13:43:53Z</time>
      </trkpt>
      <trkpt lat="48.09557" lon="-4.19798">
        <ele>140.7</ele>
        <time>2021-09-23T13:43:57Z</time>
      </trkpt>
      <trkpt lat="48.09561" lon="-4.19794">
        <ele>141.3</ele>
        <time>2021-09-23T13:44:04Z</time>
      </trkpt>
      <trkpt lat="48.09565" lon="-4.19788">
        <ele>141.9</ele>
        <time>2021-09-23T13:44:07Z</time>
      </trkpt>
      <trkpt lat="48.09569" lon="-4.19782">
        <ele>142.5</ele>
        <time>2021-09-23T13:44:11Z</time>
      </trkpt>
      <trkpt lat="48.09573" lon="-4.19778">
        <ele>143.2</ele>
        <time>2021-09-23T13:44:15Z</time>
      </trkpt>
      <trkpt lat="48.09578" lon="-4.19774">
        <ele>145.2</ele>
        <time>2021-09-23T13:44:31Z</time>
      </trkpt>
      <trkpt lat="48.09583" lon="-4.1977">
        <ele>146.9</ele>
        <time>2021-09-23T13:44:35Z</time>
      </trkpt>
      <trkpt lat="48.09581" lon="-4.19763">
        <ele>152.1</ele>
        <time>2021-09-23T13:44:58Z</time>
      </trkpt>
      <trkpt lat="48.09579" lon="-4.19755">
        <ele>155.2</ele>
        <time>2021-09-23T13:45:20Z</time>
      </trkpt>
      <trkpt lat="48.09575" lon="-4.19747">
        <ele>155.9</ele>
        <time>2021-09-23T13:45:23Z</time>
      </trkpt>
      <trkpt lat="48.09575" lon="-4.19738">
        <ele>156.3</ele>
        <time>2021-09-23T13:45:26Z</time>
      </trkpt>
      <trkpt lat="48.09577" lon="-4.19726">
        <ele>157.6</ele>
        <time>2021-09-23T13:45:34Z</time>
      </trkpt>
      <trkpt lat="48.09579" lon="-4.19719">
        <ele>158.4</ele>
        <time>2021-09-23T13:45:37Z</time>
      </trkpt>
      <trkpt lat="48.09581" lon="-4.19711">
        <ele>159.7</ele>
        <time>2021-09-23T13:45:42Z</time>
      </trkpt>
      <trkpt lat="48.09585" lon="-4.19708">
        <ele>161.5</ele>
        <time>2021-09-23T13:45:48Z</time>
      </trkpt>
      <trkpt lat="48.09589" lon="-4.19704">
        <ele>162.7</ele>
        <time>2021-09-23T13:45:52Z</time>
      </trkpt>
      <trkpt lat="48.09592" lon="-4.19698">
        <ele>164.1</ele>
        <time>2021-09-23T13:45:57Z</time>
      </trkpt>
      <trkpt lat="48.09592" lon="-4.19688">
        <ele>165.5</ele>
        <time>2021-09-23T13:46:00Z</time>
      </trkpt>
      <trkpt lat="48.09593" lon="-4.19677">
        <ele>168</ele>
        <time>2021-09-23T13:46:13Z</time>
      </trkpt>
      <trkpt lat="48.09595" lon="-4.19669">
        <ele>168</ele>
        <time>2021-09-23T13:46:16Z</time>
      </trkpt>
      <trkpt lat="48.09594" lon="-4.19662">
        <ele>167.9</ele>
        <time>2021-09-23T13:46:26Z</time>
      </trkpt>
      <trkpt lat="48.09595" lon="-4.19656">
        <ele>167.5</ele>
        <time>2021-09-23T13:46:32Z</time>
      </trkpt>
      <trkpt lat="48.09597" lon="-4.19649">
        <ele>167.2</ele>
        <time>2021-09-23T13:46:41Z</time>
      </trkpt>
      <trkpt lat="48.09599" lon="-4.19641">
        <ele>167.2</ele>
        <time>2021-09-23T13:46:44Z</time>
      </trkpt>
      <trkpt lat="48.09601" lon="-4.19631">
        <ele>167.6</ele>
        <time>2021-09-23T13:46:51Z</time>
      </trkpt>
      <trkpt lat="48.09603" lon="-4.1962">
        <ele>168.2</ele>
        <time>2021-09-23T13:46:54Z</time>
      </trkpt>
      <trkpt lat="48.09603" lon="-4.19612">
        <ele>168.8</ele>
        <time>2021-09-23T13:46:57Z</time>
      </trkpt>
      <trkpt lat="48.09603" lon="-4.19606">
        <ele>169.4</ele>
        <time>2021-09-23T13:47:03Z</time>
      </trkpt>
      <trkpt lat="48.09603" lon="-4.19598">
        <ele>170.5</ele>
        <time>2021-09-23T13:47:11Z</time>
      </trkpt>
      <trkpt lat="48.09606" lon="-4.1959">
        <ele>171.5</ele>
        <time>2021-09-23T13:47:15Z</time>
      </trkpt>
      <trkpt lat="48.09609" lon="-4.19583">
        <ele>172.1</ele>
        <time>2021-09-23T13:47:18Z</time>
      </trkpt>
      <trkpt lat="48.09614" lon="-4.19578">
        <ele>172.9</ele>
        <time>2021-09-23T13:47:23Z</time>
      </trkpt>
      <trkpt lat="48.09614" lon="-4.19571">
        <ele>173.4</ele>
        <time>2021-09-23T13:47:29Z</time>
      </trkpt>
      <trkpt lat="48.09614" lon="-4.19564">
        <ele>174</ele>
        <time>2021-09-23T13:47:39Z</time>
      </trkpt>
      <trkpt lat="48.09616" lon="-4.19558">
        <ele>175.3</ele>
        <time>2021-09-23T13:47:43Z</time>
      </trkpt>
      <trkpt lat="48.09618" lon="-4.19551">
        <ele>176.1</ele>
        <time>2021-09-23T13:47:46Z</time>
      </trkpt>
      <trkpt lat="48.09619" lon="-4.1954">
        <ele>178.9</ele>
        <time>2021-09-23T13:47:59Z</time>
      </trkpt>
      <trkpt lat="48.09621" lon="-4.19531">
        <ele>179.9</ele>
        <time>2021-09-23T13:48:02Z</time>
      </trkpt>
      <trkpt lat="48.09622" lon="-4.19525">
        <ele>181.5</ele>
        <time>2021-09-23T13:48:07Z</time>
      </trkpt>
      <trkpt lat="48.09624" lon="-4.19517">
        <ele>183.2</ele>
        <time>2021-09-23T13:48:18Z</time>
      </trkpt>
      <trkpt lat="48.09626" lon="-4.19509">
        <ele>183.8</ele>
        <time>2021-09-23T13:48:21Z</time>
      </trkpt>
      <trkpt lat="48.09624" lon="-4.19499">
        <ele>185.2</ele>
        <time>2021-09-23T13:48:30Z</time>
      </trkpt>
      <trkpt lat="48.09622" lon="-4.19492">
        <ele>185.9</ele>
        <time>2021-09-23T13:48:33Z</time>
      </trkpt>
      <trkpt lat="48.0962" lon="-4.19485">
        <ele>186.4</ele>
        <time>2021-09-23T13:48:38Z</time>
      </trkpt>
      <trkpt lat="48.09615" lon="-4.19479">
        <ele>186.9</ele>
        <time>2021-09-23T13:48:48Z</time>
      </trkpt>
      <trkpt lat="48.09611" lon="-4.19473">
        <ele>186.9</ele>
        <time>2021-09-23T13:48:51Z</time>
      </trkpt>
      <trkpt lat="48.09607" lon="-4.19469">
        <ele>186.8</ele>
        <time>2021-09-23T13:48:54Z</time>
      </trkpt>
      <trkpt lat="48.09603" lon="-4.19465">
        <ele>186.4</ele>
        <time>2021-09-23T13:49:02Z</time>
      </trkpt>
      <trkpt lat="48.09601" lon="-4.19458">
        <ele>186.2</ele>
        <time>2021-09-23T13:49:06Z</time>
      </trkpt>
      <trkpt lat="48.09599" lon="-4.1945">
        <ele>186.5</ele>
        <time>2021-09-23T13:49:09Z</time>
      </trkpt>
      <trkpt lat="48.09596" lon="-4.19444">
        <ele>186.7</ele>
        <time>2021-09-23T13:49:13Z</time>
      </trkpt>
      <trkpt lat="48.09594" lon="-4.19438">
        <ele>186.5</ele>
        <time>2021-09-23T13:49:19Z</time>
      </trkpt>
      <trkpt lat="48.0959" lon="-4.19434">
        <ele>185.3</ele>
        <time>2021-09-23T13:49:32Z</time>
      </trkpt>
      <trkpt lat="48.09585" lon="-4.1943">
        <ele>184</ele>
        <time>2021-09-23T13:49:35Z</time>
      </trkpt>
      <trkpt lat="48.09579" lon="-4.19423">
        <ele>180.8</ele>
        <time>2021-09-23T13:49:53Z</time>
      </trkpt>
      <trkpt lat="48.09576" lon="-4.19417">
        <ele>180.4</ele>
        <time>2021-09-23T13:49:57Z</time>
      </trkpt>
      <trkpt lat="48.09574" lon="-4.1941">
        <ele>179.8</ele>
        <time>2021-09-23T13:50:05Z</time>
      </trkpt>
      <trkpt lat="48.09571" lon="-4.19403">
        <ele>179.4</ele>
        <time>2021-09-23T13:50:08Z</time>
      </trkpt>
      <trkpt lat="48.09566" lon="-4.19395">
        <ele>178.8</ele>
        <time>2021-09-23T13:50:16Z</time>
      </trkpt>
      <trkpt lat="48.09562" lon="-4.19388">
        <ele>178.6</ele>
        <time>2021-09-23T13:50:19Z</time>
      </trkpt>
      <trkpt lat="48.09557" lon="-4.19379">
        <ele>177.8</ele>
        <time>2021-09-23T13:50:30Z</time>
      </trkpt>
      <trkpt lat="48.09555" lon="-4.19374">
        <ele>177.4</ele>
        <time>2021-09-23T13:50:33Z</time>
      </trkpt>
      <trkpt lat="48.09552" lon="-4.19368">
        <ele>176.8</ele>
        <time>2021-09-23T13:50:37Z</time>
      </trkpt>
      <trkpt lat="48.09547" lon="-4.19356">
        <ele>175.5</ele>
        <time>2021-09-23T13:50:58Z</time>
      </trkpt>
      <trkpt lat="48.09543" lon="-4.19349">
        <ele>175.4</ele>
        <time>2021-09-23T13:51:01Z</time>
      </trkpt>
      <trkpt lat="48.0954" lon="-4.1934">
        <ele>176</ele>
        <time>2021-09-23T13:51:23Z</time>
      </trkpt>
      <trkpt lat="48.09539" lon="-4.19333">
        <ele>177.4</ele>
        <time>2021-09-23T13:51:28Z</time>
      </trkpt>
      <trkpt lat="48.0954" lon="-4.19325">
        <ele>181.5</ele>
        <time>2021-09-23T13:52:16Z</time>
      </trkpt>
      <trkpt lat="48.09538" lon="-4.19316">
        <ele>183.9</ele>
        <time>2021-09-23T13:52:19Z</time>
      </trkpt>
      <trkpt lat="48.09532" lon="-4.1931">
        <ele>190.3</ele>
        <time>2021-09-23T13:52:50Z</time>
      </trkpt>
      <trkpt lat="48.09528" lon="-4.19308">
        <ele>192.6</ele>
        <time>2021-09-23T13:52:56Z</time>
      </trkpt>
      <trkpt lat="48.09527" lon="-4.19301">
        <ele>195.2</ele>
        <time>2021-09-23T13:53:39Z</time>
      </trkpt>
      <trkpt lat="48.09525" lon="-4.19292">
        <ele>196</ele>
        <time>2021-09-23T13:53:42Z</time>
      </trkpt>
      <trkpt lat="48.09524" lon="-4.19285">
        <ele>196.9</ele>
        <time>2021-09-23T13:53:45Z</time>
      </trkpt>
      <trkpt lat="48.09525" lon="-4.19278">
        <ele>198.1</ele>
        <time>2021-09-23T13:53:49Z</time>
      </trkpt>
      <trkpt lat="48.09525" lon="-4.1927">
        <ele>199.3</ele>
        <time>2021-09-23T13:53:52Z</time>
      </trkpt>
      <trkpt lat="48.09525" lon="-4.19263">
        <ele>200.6</ele>
        <time>2021-09-23T13:53:56Z</time>
      </trkpt>
      <trkpt lat="48.09527" lon="-4.19257">
        <ele>202</ele>
        <time>2021-09-23T13:54:02Z</time>
      </trkpt>
      <trkpt lat="48.09529" lon="-4.19251">
        <ele>202.9</ele>
        <time>2021-09-23T13:54:09Z</time>
      </trkpt>
      <trkpt lat="48.09532" lon="-4.19244">
        <ele>203.3</ele>
        <time>2021-09-23T13:54:12Z</time>
      </trkpt>
      <trkpt lat="48.09535" lon="-4.19239">
        <ele>203.7</ele>
        <time>2021-09-23T13:54:15Z</time>
      </trkpt>
      <trkpt lat="48.09536" lon="-4.19231">
        <ele>203.9</ele>
        <time>2021-09-23T13:54:19Z</time>
      </trkpt>
      <trkpt lat="48.09536" lon="-4.19222">
        <ele>204.6</ele>
        <time>2021-09-23T13:54:27Z</time>
      </trkpt>
      <trkpt lat="48.09537" lon="-4.19213">
        <ele>205.2</ele>
        <time>2021-09-23T13:54:30Z</time>
      </trkpt>
      <trkpt lat="48.09538" lon="-4.19205">
        <ele>206.4</ele>
        <time>2021-09-23T13:54:34Z</time>
      </trkpt>
      <trkpt lat="48.09541" lon="-4.19199">
        <ele>207.6</ele>
        <time>2021-09-23T13:54:38Z</time>
      </trkpt>
      <trkpt lat="48.09544" lon="-4.19192">
        <ele>209</ele>
        <time>2021-09-23T13:54:42Z</time>
      </trkpt>
      <trkpt lat="48.09546" lon="-4.19184">
        <ele>210.6</ele>
        <time>2021-09-23T13:54:46Z</time>
      </trkpt>
      <trkpt lat="48.09546" lon="-4.19176">
        <ele>212</ele>
        <time>2021-09-23T13:54:50Z</time>
      </trkpt>
      <trkpt lat="48.09546" lon="-4.19168">
        <ele>213.1</ele>
        <time>2021-09-23T13:54:54Z</time>
      </trkpt>
      <trkpt lat="48.09546" lon="-4.1916">
        <ele>214.2</ele>
        <time>2021-09-23T13:54:58Z</time>
      </trkpt>
      <trkpt lat="48.09547" lon="-4.19153">
        <ele>215.2</ele>
        <time>2021-09-23T13:55:02Z</time>
      </trkpt>
      <trkpt lat="48.09548" lon="-4.19145">
        <ele>216.2</ele>
        <time>2021-09-23T13:55:06Z</time>
      </trkpt>
      <trkpt lat="48.09548" lon="-4.19137">
        <ele>217</ele>
        <time>2021-09-23T13:55:10Z</time>
      </trkpt>
      <trkpt lat="48.09548" lon="-4.1913">
        <ele>217.9</ele>
        <time>2021-09-23T13:55:15Z</time>
      </trkpt>
      <trkpt lat="48.0955" lon="-4.19123">
        <ele>218.7</ele>
        <time>2021-09-23T13:55:20Z</time>
      </trkpt>
      <trkpt lat="48.09552" lon="-4.19116">
        <ele>219.8</ele>
        <time>2021-09-23T13:55:25Z</time>
      </trkpt>
      <trkpt lat="48.09555" lon="-4.19109">
        <ele>220.8</ele>
        <time>2021-09-23T13:55:32Z</time>
      </trkpt>
      <trkpt lat="48.09557" lon="-4.19103">
        <ele>221.6</ele>
        <time>2021-09-23T13:55:39Z</time>
      </trkpt>
      <trkpt lat="48.09556" lon="-4.19095">
        <ele>221.8</ele>
        <time>2021-09-23T13:55:43Z</time>
      </trkpt>
      <trkpt lat="48.09557" lon="-4.19088">
        <ele>221.9</ele>
        <time>2021-09-23T13:55:46Z</time>
      </trkpt>
      <trkpt lat="48.09559" lon="-4.19081">
        <ele>222.1</ele>
        <time>2021-09-23T13:55:51Z</time>
      </trkpt>
      <trkpt lat="48.09561" lon="-4.19073">
        <ele>222.4</ele>
        <time>2021-09-23T13:55:55Z</time>
      </trkpt>
      <trkpt lat="48.09565" lon="-4.19067">
        <ele>222.9</ele>
        <time>2021-09-23T13:55:59Z</time>
      </trkpt>
      <trkpt lat="48.09568" lon="-4.19061">
        <ele>223.8</ele>
        <time>2021-09-23T13:56:03Z</time>
      </trkpt>
      <trkpt lat="48.09571" lon="-4.19056">
        <ele>224.4</ele>
        <time>2021-09-23T13:56:07Z</time>
      </trkpt>
      <trkpt lat="48.09573" lon="-4.1905">
        <ele>224.8</ele>
        <time>2021-09-23T13:56:12Z</time>
      </trkpt>
      <trkpt lat="48.09574" lon="-4.19042">
        <ele>225.3</ele>
        <time>2021-09-23T13:56:16Z</time>
      </trkpt>
      <trkpt lat="48.09575" lon="-4.19035">
        <ele>225.9</ele>
        <time>2021-09-23T13:56:20Z</time>
      </trkpt>
      <trkpt lat="48.09576" lon="-4.19028">
        <ele>226.8</ele>
        <time>2021-09-23T13:56:24Z</time>
      </trkpt>
      <trkpt lat="48.09579" lon="-4.1902">
        <ele>227.3</ele>
        <time>2021-09-23T13:56:29Z</time>
      </trkpt>
      <trkpt lat="48.09581" lon="-4.19012">
        <ele>227.8</ele>
        <time>2021-09-23T13:56:35Z</time>
      </trkpt>
      <trkpt lat="48.09584" lon="-4.19005">
        <ele>228.4</ele>
        <time>2021-09-23T13:56:40Z</time>
      </trkpt>
      <trkpt lat="48.09588" lon="-4.19001">
        <ele>228.9</ele>
        <time>2021-09-23T13:56:44Z</time>
      </trkpt>
      <trkpt lat="48.09589" lon="-4.18994">
        <ele>229.4</ele>
        <time>2021-09-23T13:56:48Z</time>
      </trkpt>
      <trkpt lat="48.09591" lon="-4.18987">
        <ele>229.9</ele>
        <time>2021-09-23T13:56:51Z</time>
      </trkpt>
      <trkpt lat="48.09592" lon="-4.18979">
        <ele>230.7</ele>
        <time>2021-09-23T13:56:55Z</time>
      </trkpt>
      <trkpt lat="48.09593" lon="-4.1897">
        <ele>232.2</ele>
        <time>2021-09-23T13:57:03Z</time>
      </trkpt>
      <trkpt lat="48.09596" lon="-4.18962">
        <ele>233.1</ele>
        <time>2021-09-23T13:57:07Z</time>
      </trkpt>
      <trkpt lat="48.096" lon="-4.18956">
        <ele>233.9</ele>
        <time>2021-09-23T13:57:11Z</time>
      </trkpt>
      <trkpt lat="48.09604" lon="-4.1895">
        <ele>234.7</ele>
        <time>2021-09-23T13:57:15Z</time>
      </trkpt>
      <trkpt lat="48.09606" lon="-4.18944">
        <ele>235.2</ele>
        <time>2021-09-23T13:57:19Z</time>
      </trkpt>
      <trkpt lat="48.09609" lon="-4.18937">
        <ele>235.9</ele>
        <time>2021-09-23T13:57:24Z</time>
      </trkpt>
      <trkpt lat="48.09612" lon="-4.18932">
        <ele>236.6</ele>
        <time>2021-09-23T13:57:29Z</time>
      </trkpt>
      <trkpt lat="48.09614" lon="-4.18924">
        <ele>237.4</ele>
        <time>2021-09-23T13:57:33Z</time>
      </trkpt>
      <trkpt lat="48.09616" lon="-4.18917">
        <ele>238.1</ele>
        <time>2021-09-23T13:57:36Z</time>
      </trkpt>
      <trkpt lat="48.09618" lon="-4.1891">
        <ele>239.1</ele>
        <time>2021-09-23T13:57:40Z</time>
      </trkpt>
      <trkpt lat="48.09621" lon="-4.18904">
        <ele>240.1</ele>
        <time>2021-09-23T13:57:46Z</time>
      </trkpt>
      <trkpt lat="48.09621" lon="-4.18898">
        <ele>240.3</ele>
        <time>2021-09-23T13:57:49Z</time>
      </trkpt>
      <trkpt lat="48.09622" lon="-4.18891">
        <ele>240.4</ele>
        <time>2021-09-23T13:57:54Z</time>
      </trkpt>
      <trkpt lat="48.09626" lon="-4.18883">
        <ele>241</ele>
        <time>2021-09-23T13:58:03Z</time>
      </trkpt>
      <trkpt lat="48.09629" lon="-4.18877">
        <ele>241.4</ele>
        <time>2021-09-23T13:58:06Z</time>
      </trkpt>
      <trkpt lat="48.09633" lon="-4.18871">
        <ele>241.7</ele>
        <time>2021-09-23T13:58:10Z</time>
      </trkpt>
      <trkpt lat="48.09635" lon="-4.18865">
        <ele>241.8</ele>
        <time>2021-09-23T13:58:15Z</time>
      </trkpt>
      <trkpt lat="48.09637" lon="-4.18858">
        <ele>241.8</ele>
        <time>2021-09-23T13:58:19Z</time>
      </trkpt>
      <trkpt lat="48.09638" lon="-4.18851">
        <ele>241.9</ele>
        <time>2021-09-23T13:58:24Z</time>
      </trkpt>
      <trkpt lat="48.09639" lon="-4.18844">
        <ele>242</ele>
        <time>2021-09-23T13:58:29Z</time>
      </trkpt>
      <trkpt lat="48.09644" lon="-4.18839">
        <ele>242</ele>
        <time>2021-09-23T13:58:33Z</time>
      </trkpt>
      <trkpt lat="48.09649" lon="-4.18834">
        <ele>242.2</ele>
        <time>2021-09-23T13:58:37Z</time>
      </trkpt>
      <trkpt lat="48.09652" lon="-4.18829">
        <ele>242.2</ele>
        <time>2021-09-23T13:58:41Z</time>
      </trkpt>
      <trkpt lat="48.09655" lon="-4.18822">
        <ele>242.2</ele>
        <time>2021-09-23T13:58:45Z</time>
      </trkpt>
      <trkpt lat="48.09658" lon="-4.18816">
        <ele>242.1</ele>
        <time>2021-09-23T13:58:49Z</time>
      </trkpt>
      <trkpt lat="48.09661" lon="-4.18809">
        <ele>242.1</ele>
        <time>2021-09-23T13:58:53Z</time>
      </trkpt>
      <trkpt lat="48.09666" lon="-4.18805">
        <ele>241.9</ele>
        <time>2021-09-23T13:58:57Z</time>
      </trkpt>
      <trkpt lat="48.09671" lon="-4.18802">
        <ele>241.8</ele>
        <time>2021-09-23T13:59:01Z</time>
      </trkpt>
      <trkpt lat="48.09674" lon="-4.18796">
        <ele>241.8</ele>
        <time>2021-09-23T13:59:06Z</time>
      </trkpt>
      <trkpt lat="48.09678" lon="-4.18791">
        <ele>241.7</ele>
        <time>2021-09-23T13:59:10Z</time>
      </trkpt>
      <trkpt lat="48.0968" lon="-4.18785">
        <ele>241.5</ele>
        <time>2021-09-23T13:59:14Z</time>
      </trkpt>
      <trkpt lat="48.09683" lon="-4.18779">
        <ele>241.1</ele>
        <time>2021-09-23T13:59:18Z</time>
      </trkpt>
      <trkpt lat="48.09688" lon="-4.18776">
        <ele>240.9</ele>
        <time>2021-09-23T13:59:22Z</time>
      </trkpt>
      <trkpt lat="48.09691" lon="-4.18771">
        <ele>240.8</ele>
        <time>2021-09-23T13:59:26Z</time>
      </trkpt>
      <trkpt lat="48.09695" lon="-4.18765">
        <ele>240.7</ele>
        <time>2021-09-23T13:59:30Z</time>
      </trkpt>
      <trkpt lat="48.09698" lon="-4.1876">
        <ele>240.7</ele>
        <time>2021-09-23T13:59:34Z</time>
      </trkpt>
      <trkpt lat="48.09702" lon="-4.18756">
        <ele>240.6</ele>
        <time>2021-09-23T13:59:39Z</time>
      </trkpt>
      <trkpt lat="48.09705" lon="-4.1875">
        <ele>241.1</ele>
        <time>2021-09-23T13:59:46Z</time>
      </trkpt>
      <trkpt lat="48.09706" lon="-4.18743">
        <ele>240.1</ele>
        <time>2021-09-23T14:00:16Z</time>
      </trkpt>
      <trkpt lat="48.09708" lon="-4.18736">
        <ele>238.8</ele>
        <time>2021-09-23T14:00:20Z</time>
      </trkpt>
      <trkpt lat="48.09709" lon="-4.1873">
        <ele>237.6</ele>
        <time>2021-09-23T14:00:30Z</time>
      </trkpt>
      <trkpt lat="48.0971" lon="-4.18723">
        <ele>237.6</ele>
        <time>2021-09-23T14:00:34Z</time>
      </trkpt>
      <trkpt lat="48.09711" lon="-4.18714">
        <ele>237.6</ele>
        <time>2021-09-23T14:00:37Z</time>
      </trkpt>
      <trkpt lat="48.0971" lon="-4.18707">
        <ele>237.8</ele>
        <time>2021-09-23T14:00:42Z</time>
      </trkpt>
      <trkpt lat="48.0971" lon="-4.187">
        <ele>237.9</ele>
        <time>2021-09-23T14:00:45Z</time>
      </trkpt>
      <trkpt lat="48.0971" lon="-4.18692">
        <ele>237.9</ele>
        <time>2021-09-23T14:00:48Z</time>
      </trkpt>
      <trkpt lat="48.0971" lon="-4.18685">
        <ele>238.1</ele>
        <time>2021-09-23T14:00:52Z</time>
      </trkpt>
      <trkpt lat="48.09711" lon="-4.18678">
        <ele>238.3</ele>
        <time>2021-09-23T14:00:57Z</time>
      </trkpt>
      <trkpt lat="48.09714" lon="-4.18672">
        <ele>238.5</ele>
        <time>2021-09-23T14:01:01Z</time>
      </trkpt>
      <trkpt lat="48.09717" lon="-4.18665">
        <ele>238.6</ele>
        <time>2021-09-23T14:01:06Z</time>
      </trkpt>
      <trkpt lat="48.09718" lon="-4.18657">
        <ele>239</ele>
        <time>2021-09-23T14:01:11Z</time>
      </trkpt>
      <trkpt lat="48.0972" lon="-4.1865">
        <ele>239.1</ele>
        <time>2021-09-23T14:01:15Z</time>
      </trkpt>
      <trkpt lat="48.09722" lon="-4.18643">
        <ele>239.3</ele>
        <time>2021-09-23T14:01:20Z</time>
      </trkpt>
      <trkpt lat="48.09723" lon="-4.18637">
        <ele>239.5</ele>
        <time>2021-09-23T14:01:25Z</time>
      </trkpt>
      <trkpt lat="48.09723" lon="-4.18629">
        <ele>240</ele>
        <time>2021-09-23T14:01:33Z</time>
      </trkpt>
      <trkpt lat="48.09724" lon="-4.18621">
        <ele>240.2</ele>
        <time>2021-09-23T14:01:36Z</time>
      </trkpt>
      <trkpt lat="48.09729" lon="-4.18616">
        <ele>240.8</ele>
        <time>2021-09-23T14:01:40Z</time>
      </trkpt>
      <trkpt lat="48.09733" lon="-4.18609">
        <ele>241.5</ele>
        <time>2021-09-23T14:01:49Z</time>
      </trkpt>
      <trkpt lat="48.09735" lon="-4.18601">
        <ele>241.8</ele>
        <time>2021-09-23T14:01:52Z</time>
      </trkpt>
      <trkpt lat="48.09736" lon="-4.18595">
        <ele>242.2</ele>
        <time>2021-09-23T14:01:56Z</time>
      </trkpt>
      <trkpt lat="48.09737" lon="-4.18586">
        <ele>242.7</ele>
        <time>2021-09-23T14:02:05Z</time>
      </trkpt>
      <trkpt lat="48.09738" lon="-4.18578">
        <ele>243.4</ele>
        <time>2021-09-23T14:02:09Z</time>
      </trkpt>
      <trkpt lat="48.0974" lon="-4.18572">
        <ele>244.3</ele>
        <time>2021-09-23T14:02:13Z</time>
      </trkpt>
      <trkpt lat="48.09743" lon="-4.18564">
        <ele>245.8</ele>
        <time>2021-09-23T14:02:22Z</time>
      </trkpt>
      <trkpt lat="48.09746" lon="-4.18557">
        <ele>246.7</ele>
        <time>2021-09-23T14:02:25Z</time>
      </trkpt>
      <trkpt lat="48.0975" lon="-4.18547">
        <ele>248.2</ele>
        <time>2021-09-23T14:02:37Z</time>
      </trkpt>
      <trkpt lat="48.09753" lon="-4.18539">
        <ele>247.6</ele>
        <time>2021-09-23T14:02:40Z</time>
      </trkpt>
      <trkpt lat="48.09755" lon="-4.18533">
        <ele>247.1</ele>
        <time>2021-09-23T14:02:44Z</time>
      </trkpt>
      <trkpt lat="48.09758" lon="-4.18527">
        <ele>246.5</ele>
        <time>2021-09-23T14:02:48Z</time>
      </trkpt>
      <trkpt lat="48.09761" lon="-4.18521">
        <ele>246.1</ele>
        <time>2021-09-23T14:02:53Z</time>
      </trkpt>
      <trkpt lat="48.09764" lon="-4.18516">
        <ele>246.2</ele>
        <time>2021-09-23T14:02:57Z</time>
      </trkpt>
      <trkpt lat="48.09769" lon="-4.18505">
        <ele>246.6</ele>
        <time>2021-09-23T14:03:10Z</time>
      </trkpt>
      <trkpt lat="48.09773" lon="-4.18498">
        <ele>246.4</ele>
        <time>2021-09-23T14:03:13Z</time>
      </trkpt>
      <trkpt lat="48.09777" lon="-4.18493">
        <ele>246.1</ele>
        <time>2021-09-23T14:03:17Z</time>
      </trkpt>
      <trkpt lat="48.0978" lon="-4.18487">
        <ele>246.2</ele>
        <time>2021-09-23T14:03:21Z</time>
      </trkpt>
      <trkpt lat="48.09782" lon="-4.1848">
        <ele>246.1</ele>
        <time>2021-09-23T14:03:29Z</time>
      </trkpt>
      <trkpt lat="48.09786" lon="-4.18472">
        <ele>245.9</ele>
        <time>2021-09-23T14:03:37Z</time>
      </trkpt>
      <trkpt lat="48.0979" lon="-4.18468">
        <ele>245.7</ele>
        <time>2021-09-23T14:03:40Z</time>
      </trkpt>
      <trkpt lat="48.09794" lon="-4.18463">
        <ele>245.6</ele>
        <time>2021-09-23T14:03:44Z</time>
      </trkpt>
      <trkpt lat="48.09798" lon="-4.18458">
        <ele>245.5</ele>
        <time>2021-09-23T14:03:48Z</time>
      </trkpt>
      <trkpt lat="48.09801" lon="-4.18454">
        <ele>245.3</ele>
        <time>2021-09-23T14:03:53Z</time>
      </trkpt>
      <trkpt lat="48.09806" lon="-4.18451">
        <ele>245.7</ele>
        <time>2021-09-23T14:03:58Z</time>
      </trkpt>
      <trkpt lat="48.09809" lon="-4.18446">
        <ele>245.9</ele>
        <time>2021-09-23T14:04:02Z</time>
      </trkpt>
      <trkpt lat="48.09813" lon="-4.1844">
        <ele>246.1</ele>
        <time>2021-09-23T14:04:07Z</time>
      </trkpt>
      <trkpt lat="48.09817" lon="-4.18436">
        <ele>246.4</ele>
        <time>2021-09-23T14:04:11Z</time>
      </trkpt>
      <trkpt lat="48.09822" lon="-4.18431">
        <ele>246.8</ele>
        <time>2021-09-23T14:04:15Z</time>
      </trkpt>
      <trkpt lat="48.09825" lon="-4.18424">
        <ele>247.9</ele>
        <time>2021-09-23T14:04:21Z</time>
      </trkpt>
      <trkpt lat="48.09826" lon="-4.18417">
        <ele>248.6</ele>
        <time>2021-09-23T14:04:25Z</time>
      </trkpt>
      <trkpt lat="48.09828" lon="-4.18408">
        <ele>249.9</ele>
        <time>2021-09-23T14:04:34Z</time>
      </trkpt>
      <trkpt lat="48.0983" lon="-4.184">
        <ele>250.8</ele>
        <time>2021-09-23T14:04:37Z</time>
      </trkpt>
      <trkpt lat="48.09833" lon="-4.18394">
        <ele>251.9</ele>
        <time>2021-09-23T14:04:41Z</time>
      </trkpt>
      <trkpt lat="48.09835" lon="-4.18387">
        <ele>252.8</ele>
        <time>2021-09-23T14:04:45Z</time>
      </trkpt>
      <trkpt lat="48.09837" lon="-4.1838">
        <ele>253.1</ele>
        <time>2021-09-23T14:04:49Z</time>
      </trkpt>
      <trkpt lat="48.09838" lon="-4.18372">
        <ele>253.9</ele>
        <time>2021-09-23T14:04:54Z</time>
      </trkpt>
      <trkpt lat="48.09841" lon="-4.18365">
        <ele>254.9</ele>
        <time>2021-09-23T14:04:59Z</time>
      </trkpt>
      <trkpt lat="48.09843" lon="-4.18359">
        <ele>255.3</ele>
        <time>2021-09-23T14:05:03Z</time>
      </trkpt>
      <trkpt lat="48.09845" lon="-4.18353">
        <ele>255.9</ele>
        <time>2021-09-23T14:05:07Z</time>
      </trkpt>
      <trkpt lat="48.09848" lon="-4.18346">
        <ele>256.4</ele>
        <time>2021-09-23T14:05:11Z</time>
      </trkpt>
      <trkpt lat="48.0985" lon="-4.18338">
        <ele>257</ele>
        <time>2021-09-23T14:05:15Z</time>
      </trkpt>
      <trkpt lat="48.09853" lon="-4.18333">
        <ele>257.7</ele>
        <time>2021-09-23T14:05:19Z</time>
      </trkpt>
      <trkpt lat="48.09856" lon="-4.18328">
        <ele>258</ele>
        <time>2021-09-23T14:05:22Z</time>
      </trkpt>
      <trkpt lat="48.09856" lon="-4.18321">
        <ele>258.6</ele>
        <time>2021-09-23T14:05:26Z</time>
      </trkpt>
      <trkpt lat="48.09857" lon="-4.18314">
        <ele>259.2</ele>
        <time>2021-09-23T14:05:30Z</time>
      </trkpt>
      <trkpt lat="48.09859" lon="-4.18307">
        <ele>259.8</ele>
        <time>2021-09-23T14:05:34Z</time>
      </trkpt>
      <trkpt lat="48.09863" lon="-4.18301">
        <ele>260.6</ele>
        <time>2021-09-23T14:05:39Z</time>
      </trkpt>
      <trkpt lat="48.09866" lon="-4.18296">
        <ele>260.9</ele>
        <time>2021-09-23T14:05:43Z</time>
      </trkpt>
      <trkpt lat="48.0987" lon="-4.18289">
        <ele>261</ele>
        <time>2021-09-23T14:05:49Z</time>
      </trkpt>
      <trkpt lat="48.09873" lon="-4.18284">
        <ele>261.2</ele>
        <time>2021-09-23T14:05:52Z</time>
      </trkpt>
      <trkpt lat="48.09876" lon="-4.18276">
        <ele>261.5</ele>
        <time>2021-09-23T14:05:56Z</time>
      </trkpt>
      <trkpt lat="48.09879" lon="-4.1827">
        <ele>262.2</ele>
        <time>2021-09-23T14:06:00Z</time>
      </trkpt>
      <trkpt lat="48.09879" lon="-4.18262">
        <ele>262.7</ele>
        <time>2021-09-23T14:06:04Z</time>
      </trkpt>
      <trkpt lat="48.09879" lon="-4.18254">
        <ele>263.3</ele>
        <time>2021-09-23T14:06:08Z</time>
      </trkpt>
      <trkpt lat="48.09881" lon="-4.18248">
        <ele>263.9</ele>
        <time>2021-09-23T14:06:12Z</time>
      </trkpt>
      <trkpt lat="48.09882" lon="-4.18241">
        <ele>264.6</ele>
        <time>2021-09-23T14:06:16Z</time>
      </trkpt>
      <trkpt lat="48.09881" lon="-4.18234">
        <ele>265.3</ele>
        <time>2021-09-23T14:06:20Z</time>
      </trkpt>
      <trkpt lat="48.09879" lon="-4.18227">
        <ele>266</ele>
        <time>2021-09-23T14:06:24Z</time>
      </trkpt>
      <trkpt lat="48.09878" lon="-4.1822">
        <ele>266.7</ele>
        <time>2021-09-23T14:06:28Z</time>
      </trkpt>
      <trkpt lat="48.09879" lon="-4.1821">
        <ele>268.2</ele>
        <time>2021-09-23T14:06:38Z</time>
      </trkpt>
      <trkpt lat="48.0988" lon="-4.18201">
        <ele>269</ele>
        <time>2021-09-23T14:06:41Z</time>
      </trkpt>
      <trkpt lat="48.09882" lon="-4.18194">
        <ele>270</ele>
        <time>2021-09-23T14:06:45Z</time>
      </trkpt>
      <trkpt lat="48.09884" lon="-4.18187">
        <ele>271.2</ele>
        <time>2021-09-23T14:06:49Z</time>
      </trkpt>
      <trkpt lat="48.09886" lon="-4.18181">
        <ele>272.2</ele>
        <time>2021-09-23T14:06:53Z</time>
      </trkpt>
      <trkpt lat="48.09889" lon="-4.1817">
        <ele>274.3</ele>
        <time>2021-09-23T14:07:18Z</time>
      </trkpt>
      <trkpt lat="48.09892" lon="-4.18165">
        <ele>275</ele>
        <time>2021-09-23T14:07:22Z</time>
      </trkpt>
      <trkpt lat="48.09891" lon="-4.18158">
        <ele>276</ele>
        <time>2021-09-23T14:07:44Z</time>
      </trkpt>
      <trkpt lat="48.09888" lon="-4.18152">
        <ele>276.1</ele>
        <time>2021-09-23T14:07:48Z</time>
      </trkpt>
      <trkpt lat="48.09893" lon="-4.18156">
        <ele>276.8</ele>
        <time>2021-09-23T14:09:19Z</time>
      </trkpt>
      <trkpt lat="48.09896" lon="-4.1816">
        <ele>277.3</ele>
        <time>2021-09-23T14:09:27Z</time>
      </trkpt>
      <trkpt lat="48.09901" lon="-4.18168">
        <ele>277.4</ele>
        <time>2021-09-23T14:09:30Z</time>
      </trkpt>
      <trkpt lat="48.09905" lon="-4.18176">
        <ele>277.6</ele>
        <time>2021-09-23T14:09:39Z</time>
      </trkpt>
      <trkpt lat="48.09908" lon="-4.18183">
        <ele>277.6</ele>
        <time>2021-09-23T14:09:43Z</time>
      </trkpt>
      <trkpt lat="48.09911" lon="-4.1819">
        <ele>277.3</ele>
        <time>2021-09-23T14:09:50Z</time>
      </trkpt>
      <trkpt lat="48.09909" lon="-4.18183">
        <ele>275.8</ele>
        <time>2021-09-23T14:11:06Z</time>
      </trkpt>
      <trkpt lat="48.0991" lon="-4.18176">
        <ele>274.5</ele>
        <time>2021-09-23T14:11:56Z</time>
      </trkpt>
      <trkpt lat="48.09911" lon="-4.18168">
        <ele>274.4</ele>
        <time>2021-09-23T14:12:00Z</time>
      </trkpt>
      <trkpt lat="48.09915" lon="-4.18164">
        <ele>273.8</ele>
        <time>2021-09-23T14:13:27Z</time>
      </trkpt>
      <trkpt lat="48.0991" lon="-4.18166">
        <ele>273.5</ele>
        <time>2021-09-23T14:14:01Z</time>
      </trkpt>
      <trkpt lat="48.09905" lon="-4.18167">
        <ele>273.6</ele>
        <time>2021-09-23T14:14:04Z</time>
      </trkpt>
      <trkpt lat="48.09899" lon="-4.18165">
        <ele>275</ele>
        <time>2021-09-23T14:14:35Z</time>
      </trkpt>
      <trkpt lat="48.09895" lon="-4.18162">
        <ele>276</ele>
        <time>2021-09-23T14:14:38Z</time>
      </trkpt>
      <trkpt lat="48.09889" lon="-4.18158">
        <ele>278.5</ele>
        <time>2021-09-23T14:15:52Z</time>
      </trkpt>
      <trkpt lat="48.09884" lon="-4.18157">
        <ele>278.7</ele>
        <time>2021-09-23T14:15:57Z</time>
      </trkpt>
      <trkpt lat="48.09884" lon="-4.18164">
        <ele>278.2</ele>
        <time>2021-09-23T14:16:17Z</time>
      </trkpt>
      <trkpt lat="48.09885" lon="-4.18172">
        <ele>277.3</ele>
        <time>2021-09-23T14:16:20Z</time>
      </trkpt>
      <trkpt lat="48.09885" lon="-4.18179">
        <ele>276.1</ele>
        <time>2021-09-23T14:16:24Z</time>
      </trkpt>
      <trkpt lat="48.09885" lon="-4.18187">
        <ele>273.9</ele>
        <time>2021-09-23T14:16:33Z</time>
      </trkpt>
      <trkpt lat="48.09884" lon="-4.18194">
        <ele>273</ele>
        <time>2021-09-23T14:16:36Z</time>
      </trkpt>
      <trkpt lat="48.09883" lon="-4.18206">
        <ele>271.3</ele>
        <time>2021-09-23T14:16:44Z</time>
      </trkpt>
      <trkpt lat="48.09883" lon="-4.18214">
        <ele>270.8</ele>
        <time>2021-09-23T14:16:47Z</time>
      </trkpt>
      <trkpt lat="48.09882" lon="-4.18221">
        <ele>270.1</ele>
        <time>2021-09-23T14:16:50Z</time>
      </trkpt>
      <trkpt lat="48.09881" lon="-4.18229">
        <ele>269.1</ele>
        <time>2021-09-23T14:16:54Z</time>
      </trkpt>
      <trkpt lat="48.0988" lon="-4.18236">
        <ele>268.2</ele>
        <time>2021-09-23T14:16:58Z</time>
      </trkpt>
      <trkpt lat="48.09879" lon="-4.18243">
        <ele>267.2</ele>
        <time>2021-09-23T14:17:03Z</time>
      </trkpt>
      <trkpt lat="48.09878" lon="-4.18251">
        <ele>266.2</ele>
        <time>2021-09-23T14:17:08Z</time>
      </trkpt>
      <trkpt lat="48.09878" lon="-4.18259">
        <ele>265.4</ele>
        <time>2021-09-23T14:17:12Z</time>
      </trkpt>
      <trkpt lat="48.09877" lon="-4.18267">
        <ele>264.6</ele>
        <time>2021-09-23T14:17:16Z</time>
      </trkpt>
      <trkpt lat="48.09875" lon="-4.18275">
        <ele>264.1</ele>
        <time>2021-09-23T14:17:20Z</time>
      </trkpt>
      <trkpt lat="48.09875" lon="-4.18283">
        <ele>263.9</ele>
        <time>2021-09-23T14:17:24Z</time>
      </trkpt>
      <trkpt lat="48.09874" lon="-4.18292">
        <ele>263.8</ele>
        <time>2021-09-23T14:17:31Z</time>
      </trkpt>
      <trkpt lat="48.09872" lon="-4.18299">
        <ele>263.9</ele>
        <time>2021-09-23T14:17:34Z</time>
      </trkpt>
      <trkpt lat="48.0987" lon="-4.18307">
        <ele>264.3</ele>
        <time>2021-09-23T14:17:38Z</time>
      </trkpt>
      <trkpt lat="48.09867" lon="-4.18313">
        <ele>264.7</ele>
        <time>2021-09-23T14:17:42Z</time>
      </trkpt>
      <trkpt lat="48.09863" lon="-4.18318">
        <ele>264.7</ele>
        <time>2021-09-23T14:17:46Z</time>
      </trkpt>
      <trkpt lat="48.09862" lon="-4.18324">
        <ele>264.6</ele>
        <time>2021-09-23T14:17:50Z</time>
      </trkpt>
      <trkpt lat="48.09859" lon="-4.18331">
        <ele>263.9</ele>
        <time>2021-09-23T14:17:55Z</time>
      </trkpt>
      <trkpt lat="48.09856" lon="-4.18338">
        <ele>263.1</ele>
        <time>2021-09-23T14:18:01Z</time>
      </trkpt>
      <trkpt lat="48.09854" lon="-4.18347">
        <ele>261.8</ele>
        <time>2021-09-23T14:18:11Z</time>
      </trkpt>
      <trkpt lat="48.09851" lon="-4.18353">
        <ele>261.3</ele>
        <time>2021-09-23T14:18:14Z</time>
      </trkpt>
      <trkpt lat="48.09847" lon="-4.18363">
        <ele>259.9</ele>
        <time>2021-09-23T14:18:25Z</time>
      </trkpt>
      <trkpt lat="48.09845" lon="-4.18371">
        <ele>259.4</ele>
        <time>2021-09-23T14:18:28Z</time>
      </trkpt>
      <trkpt lat="48.09843" lon="-4.18378">
        <ele>258.7</ele>
        <time>2021-09-23T14:18:32Z</time>
      </trkpt>
      <trkpt lat="48.09839" lon="-4.18384">
        <ele>258</ele>
        <time>2021-09-23T14:18:37Z</time>
      </trkpt>
      <trkpt lat="48.09836" lon="-4.18389">
        <ele>257.5</ele>
        <time>2021-09-23T14:18:41Z</time>
      </trkpt>
      <trkpt lat="48.09833" lon="-4.18395">
        <ele>257.1</ele>
        <time>2021-09-23T14:18:45Z</time>
      </trkpt>
      <trkpt lat="48.0983" lon="-4.18401">
        <ele>256.8</ele>
        <time>2021-09-23T14:18:49Z</time>
      </trkpt>
      <trkpt lat="48.09828" lon="-4.18409">
        <ele>256.8</ele>
        <time>2021-09-23T14:18:56Z</time>
      </trkpt>
      <trkpt lat="48.09826" lon="-4.18418">
        <ele>257.3</ele>
        <time>2021-09-23T14:18:59Z</time>
      </trkpt>
      <trkpt lat="48.09824" lon="-4.18425">
        <ele>257.9</ele>
        <time>2021-09-23T14:19:02Z</time>
      </trkpt>
      <trkpt lat="48.09821" lon="-4.18431">
        <ele>258.7</ele>
        <time>2021-09-23T14:19:07Z</time>
      </trkpt>
      <trkpt lat="48.09819" lon="-4.18438">
        <ele>259.5</ele>
        <time>2021-09-23T14:19:12Z</time>
      </trkpt>
      <trkpt lat="48.09817" lon="-4.18444">
        <ele>260.1</ele>
        <time>2021-09-23T14:19:22Z</time>
      </trkpt>
      <trkpt lat="48.09812" lon="-4.18451">
        <ele>260.4</ele>
        <time>2021-09-23T14:19:25Z</time>
      </trkpt>
      <trkpt lat="48.09808" lon="-4.18456">
        <ele>260.7</ele>
        <time>2021-09-23T14:19:28Z</time>
      </trkpt>
      <trkpt lat="48.09803" lon="-4.18463">
        <ele>261.2</ele>
        <time>2021-09-23T14:19:33Z</time>
      </trkpt>
      <trkpt lat="48.09799" lon="-4.18471">
        <ele>261.8</ele>
        <time>2021-09-23T14:19:36Z</time>
      </trkpt>
      <trkpt lat="48.09796" lon="-4.18478">
        <ele>262.1</ele>
        <time>2021-09-23T14:19:40Z</time>
      </trkpt>
      <trkpt lat="48.09792" lon="-4.18486">
        <ele>262.5</ele>
        <time>2021-09-23T14:19:48Z</time>
      </trkpt>
      <trkpt lat="48.09788" lon="-4.18492">
        <ele>262.6</ele>
        <time>2021-09-23T14:19:51Z</time>
      </trkpt>
      <trkpt lat="48.09785" lon="-4.18499">
        <ele>262.5</ele>
        <time>2021-09-23T14:19:55Z</time>
      </trkpt>
      <trkpt lat="48.09781" lon="-4.18504">
        <ele>262.5</ele>
        <time>2021-09-23T14:19:59Z</time>
      </trkpt>
      <trkpt lat="48.09777" lon="-4.18509">
        <ele>262.2</ele>
        <time>2021-09-23T14:20:03Z</time>
      </trkpt>
      <trkpt lat="48.09774" lon="-4.18514">
        <ele>261.7</ele>
        <time>2021-09-23T14:20:07Z</time>
      </trkpt>
      <trkpt lat="48.0977" lon="-4.1852">
        <ele>261.4</ele>
        <time>2021-09-23T14:20:11Z</time>
      </trkpt>
      <trkpt lat="48.09767" lon="-4.18526">
        <ele>261.5</ele>
        <time>2021-09-23T14:20:15Z</time>
      </trkpt>
      <trkpt lat="48.09764" lon="-4.18531">
        <ele>261.4</ele>
        <time>2021-09-23T14:20:19Z</time>
      </trkpt>
      <trkpt lat="48.0976" lon="-4.18537">
        <ele>260.9</ele>
        <time>2021-09-23T14:20:24Z</time>
      </trkpt>
      <trkpt lat="48.09757" lon="-4.18543">
        <ele>260.4</ele>
        <time>2021-09-23T14:20:29Z</time>
      </trkpt>
      <trkpt lat="48.09754" lon="-4.1855">
        <ele>259.4</ele>
        <time>2021-09-23T14:20:33Z</time>
      </trkpt>
      <trkpt lat="48.09751" lon="-4.18557">
        <ele>258.2</ele>
        <time>2021-09-23T14:20:37Z</time>
      </trkpt>
      <trkpt lat="48.09748" lon="-4.18563">
        <ele>257.3</ele>
        <time>2021-09-23T14:20:40Z</time>
      </trkpt>
      <trkpt lat="48.09745" lon="-4.18569">
        <ele>256.2</ele>
        <time>2021-09-23T14:20:44Z</time>
      </trkpt>
      <trkpt lat="48.09742" lon="-4.18577">
        <ele>255</ele>
        <time>2021-09-23T14:20:52Z</time>
      </trkpt>
      <trkpt lat="48.09739" lon="-4.18585">
        <ele>254.5</ele>
        <time>2021-09-23T14:20:55Z</time>
      </trkpt>
      <trkpt lat="48.09736" lon="-4.18593">
        <ele>253.7</ele>
        <time>2021-09-23T14:20:59Z</time>
      </trkpt>
      <trkpt lat="48.09735" lon="-4.18599">
        <ele>252.9</ele>
        <time>2021-09-23T14:21:03Z</time>
      </trkpt>
      <trkpt lat="48.09733" lon="-4.18608">
        <ele>251.4</ele>
        <time>2021-09-23T14:21:10Z</time>
      </trkpt>
      <trkpt lat="48.0973" lon="-4.18617">
        <ele>250.3</ele>
        <time>2021-09-23T14:21:13Z</time>
      </trkpt>
      <trkpt lat="48.09727" lon="-4.18624">
        <ele>249.1</ele>
        <time>2021-09-23T14:21:16Z</time>
      </trkpt>
      <trkpt lat="48.09725" lon="-4.1863">
        <ele>248.1</ele>
        <time>2021-09-23T14:21:19Z</time>
      </trkpt>
      <trkpt lat="48.09723" lon="-4.18638">
        <ele>246.9</ele>
        <time>2021-09-23T14:21:23Z</time>
      </trkpt>
      <trkpt lat="48.09722" lon="-4.18645">
        <ele>246</ele>
        <time>2021-09-23T14:21:26Z</time>
      </trkpt>
      <trkpt lat="48.0972" lon="-4.18652">
        <ele>244.8</ele>
        <time>2021-09-23T14:21:30Z</time>
      </trkpt>
      <trkpt lat="48.09719" lon="-4.1866">
        <ele>243.7</ele>
        <time>2021-09-23T14:21:34Z</time>
      </trkpt>
      <trkpt lat="48.09719" lon="-4.18668">
        <ele>242.9</ele>
        <time>2021-09-23T14:21:38Z</time>
      </trkpt>
      <trkpt lat="48.09718" lon="-4.1868">
        <ele>241.4</ele>
        <time>2021-09-23T14:21:47Z</time>
      </trkpt>
      <trkpt lat="48.09717" lon="-4.18689">
        <ele>240.8</ele>
        <time>2021-09-23T14:21:50Z</time>
      </trkpt>
      <trkpt lat="48.09714" lon="-4.18699">
        <ele>239.2</ele>
        <time>2021-09-23T14:21:58Z</time>
      </trkpt>
      <trkpt lat="48.09711" lon="-4.18706">
        <ele>238.2</ele>
        <time>2021-09-23T14:22:01Z</time>
      </trkpt>
      <trkpt lat="48.09709" lon="-4.18714">
        <ele>236.8</ele>
        <time>2021-09-23T14:22:05Z</time>
      </trkpt>
      <trkpt lat="48.09708" lon="-4.18721">
        <ele>235.4</ele>
        <time>2021-09-23T14:22:09Z</time>
      </trkpt>
      <trkpt lat="48.09709" lon="-4.18728">
        <ele>234</ele>
        <time>2021-09-23T14:22:13Z</time>
      </trkpt>
      <trkpt lat="48.09709" lon="-4.18736">
        <ele>233</ele>
        <time>2021-09-23T14:22:17Z</time>
      </trkpt>
      <trkpt lat="48.0971" lon="-4.18744">
        <ele>232.2</ele>
        <time>2021-09-23T14:22:21Z</time>
      </trkpt>
      <trkpt lat="48.09712" lon="-4.18751">
        <ele>231.6</ele>
        <time>2021-09-23T14:22:25Z</time>
      </trkpt>
      <trkpt lat="48.09713" lon="-4.18758">
        <ele>231.1</ele>
        <time>2021-09-23T14:22:29Z</time>
      </trkpt>
      <trkpt lat="48.09713" lon="-4.18765">
        <ele>230.6</ele>
        <time>2021-09-23T14:22:34Z</time>
      </trkpt>
      <trkpt lat="48.09714" lon="-4.18773">
        <ele>230.2</ele>
        <time>2021-09-23T14:22:37Z</time>
      </trkpt>
      <trkpt lat="48.09717" lon="-4.18779">
        <ele>229.5</ele>
        <time>2021-09-23T14:22:42Z</time>
      </trkpt>
      <trkpt lat="48.09721" lon="-4.18791">
        <ele>229.3</ele>
        <time>2021-09-23T14:22:59Z</time>
      </trkpt>
      <trkpt lat="48.09721" lon="-4.18799">
        <ele>229.6</ele>
        <time>2021-09-23T14:23:02Z</time>
      </trkpt>
      <trkpt lat="48.0972" lon="-4.18806">
        <ele>229.7</ele>
        <time>2021-09-23T14:23:06Z</time>
      </trkpt>
      <trkpt lat="48.09719" lon="-4.18814">
        <ele>229.6</ele>
        <time>2021-09-23T14:23:10Z</time>
      </trkpt>
      <trkpt lat="48.09718" lon="-4.18822">
        <ele>229.9</ele>
        <time>2021-09-23T14:23:17Z</time>
      </trkpt>
      <trkpt lat="48.09718" lon="-4.18829">
        <ele>230</ele>
        <time>2021-09-23T14:23:20Z</time>
      </trkpt>
      <trkpt lat="48.09718" lon="-4.18838">
        <ele>229.9</ele>
        <time>2021-09-23T14:23:24Z</time>
      </trkpt>
      <trkpt lat="48.09718" lon="-4.18848">
        <ele>229.9</ele>
        <time>2021-09-23T14:23:32Z</time>
      </trkpt>
      <trkpt lat="48.09718" lon="-4.18858">
        <ele>230.2</ele>
        <time>2021-09-23T14:23:35Z</time>
      </trkpt>
      <trkpt lat="48.09718" lon="-4.18866">
        <ele>230.5</ele>
        <time>2021-09-23T14:23:38Z</time>
      </trkpt>
      <trkpt lat="48.09717" lon="-4.18873">
        <ele>230.8</ele>
        <time>2021-09-23T14:23:41Z</time>
      </trkpt>
      <trkpt lat="48.09717" lon="-4.1888">
        <ele>230.6</ele>
        <time>2021-09-23T14:23:44Z</time>
      </trkpt>
      <trkpt lat="48.09717" lon="-4.18888">
        <ele>230.3</ele>
        <time>2021-09-23T14:23:48Z</time>
      </trkpt>
      <trkpt lat="48.09717" lon="-4.18895">
        <ele>230.1</ele>
        <time>2021-09-23T14:23:52Z</time>
      </trkpt>
      <trkpt lat="48.09717" lon="-4.18903">
        <ele>230.1</ele>
        <time>2021-09-23T14:23:56Z</time>
      </trkpt>
      <trkpt lat="48.09717" lon="-4.1891">
        <ele>230.3</ele>
        <time>2021-09-23T14:23:59Z</time>
      </trkpt>
      <trkpt lat="48.09717" lon="-4.18918">
        <ele>230.5</ele>
        <time>2021-09-23T14:24:03Z</time>
      </trkpt>
      <trkpt lat="48.09716" lon="-4.18926">
        <ele>230.3</ele>
        <time>2021-09-23T14:24:07Z</time>
      </trkpt>
      <trkpt lat="48.09716" lon="-4.18933">
        <ele>229.8</ele>
        <time>2021-09-23T14:24:11Z</time>
      </trkpt>
      <trkpt lat="48.09716" lon="-4.1894">
        <ele>229.4</ele>
        <time>2021-09-23T14:24:15Z</time>
      </trkpt>
      <trkpt lat="48.09716" lon="-4.18948">
        <ele>229.1</ele>
        <time>2021-09-23T14:24:19Z</time>
      </trkpt>
      <trkpt lat="48.09716" lon="-4.18955">
        <ele>228.6</ele>
        <time>2021-09-23T14:24:23Z</time>
      </trkpt>
      <trkpt lat="48.09715" lon="-4.18962">
        <ele>228.4</ele>
        <time>2021-09-23T14:24:27Z</time>
      </trkpt>
      <trkpt lat="48.09716" lon="-4.1897">
        <ele>228.3</ele>
        <time>2021-09-23T14:24:31Z</time>
      </trkpt>
      <trkpt lat="48.09715" lon="-4.18977">
        <ele>228.1</ele>
        <time>2021-09-23T14:24:34Z</time>
      </trkpt>
      <trkpt lat="48.09716" lon="-4.18985">
        <ele>227.7</ele>
        <time>2021-09-23T14:24:39Z</time>
      </trkpt>
      <trkpt lat="48.09715" lon="-4.18992">
        <ele>227.2</ele>
        <time>2021-09-23T14:24:43Z</time>
      </trkpt>
      <trkpt lat="48.09715" lon="-4.18999">
        <ele>226.6</ele>
        <time>2021-09-23T14:24:48Z</time>
      </trkpt>
      <trkpt lat="48.09714" lon="-4.19007">
        <ele>225.7</ele>
        <time>2021-09-23T14:24:52Z</time>
      </trkpt>
      <trkpt lat="48.09714" lon="-4.19015">
        <ele>225.2</ele>
        <time>2021-09-23T14:24:56Z</time>
      </trkpt>
      <trkpt lat="48.09713" lon="-4.19022">
        <ele>224.9</ele>
        <time>2021-09-23T14:25:00Z</time>
      </trkpt>
      <trkpt lat="48.09714" lon="-4.1903">
        <ele>224.8</ele>
        <time>2021-09-23T14:25:04Z</time>
      </trkpt>
      <trkpt lat="48.09714" lon="-4.19037">
        <ele>224.7</ele>
        <time>2021-09-23T14:25:08Z</time>
      </trkpt>
      <trkpt lat="48.09714" lon="-4.19045">
        <ele>224.5</ele>
        <time>2021-09-23T14:25:12Z</time>
      </trkpt>
      <trkpt lat="48.09715" lon="-4.19053">
        <ele>224</ele>
        <time>2021-09-23T14:25:16Z</time>
      </trkpt>
      <trkpt lat="48.09714" lon="-4.1906">
        <ele>223.4</ele>
        <time>2021-09-23T14:25:19Z</time>
      </trkpt>
      <trkpt lat="48.09713" lon="-4.19068">
        <ele>222.5</ele>
        <time>2021-09-23T14:25:23Z</time>
      </trkpt>
      <trkpt lat="48.09712" lon="-4.19075">
        <ele>221.6</ele>
        <time>2021-09-23T14:25:28Z</time>
      </trkpt>
      <trkpt lat="48.09712" lon="-4.19083">
        <ele>220.8</ele>
        <time>2021-09-23T14:25:35Z</time>
      </trkpt>
      <trkpt lat="48.09711" lon="-4.19093">
        <ele>220.3</ele>
        <time>2021-09-23T14:25:38Z</time>
      </trkpt>
      <trkpt lat="48.09711" lon="-4.19101">
        <ele>219.8</ele>
        <time>2021-09-23T14:25:42Z</time>
      </trkpt>
      <trkpt lat="48.09711" lon="-4.19109">
        <ele>219.4</ele>
        <time>2021-09-23T14:25:46Z</time>
      </trkpt>
      <trkpt lat="48.09711" lon="-4.19118">
        <ele>218.9</ele>
        <time>2021-09-23T14:25:50Z</time>
      </trkpt>
      <trkpt lat="48.09711" lon="-4.19126">
        <ele>218.5</ele>
        <time>2021-09-23T14:25:54Z</time>
      </trkpt>
      <trkpt lat="48.09711" lon="-4.19134">
        <ele>218.1</ele>
        <time>2021-09-23T14:25:58Z</time>
      </trkpt>
      <trkpt lat="48.09711" lon="-4.19142">
        <ele>217.7</ele>
        <time>2021-09-23T14:26:02Z</time>
      </trkpt>
      <trkpt lat="48.09711" lon="-4.1915">
        <ele>217</ele>
        <time>2021-09-23T14:26:06Z</time>
      </trkpt>
      <trkpt lat="48.09712" lon="-4.19158">
        <ele>215.9</ele>
        <time>2021-09-23T14:26:11Z</time>
      </trkpt>
      <trkpt lat="48.09711" lon="-4.19165">
        <ele>214.9</ele>
        <time>2021-09-23T14:26:16Z</time>
      </trkpt>
      <trkpt lat="48.09711" lon="-4.19173">
        <ele>214.2</ele>
        <time>2021-09-23T14:26:19Z</time>
      </trkpt>
      <trkpt lat="48.0971" lon="-4.19186">
        <ele>213</ele>
        <time>2021-09-23T14:26:29Z</time>
      </trkpt>
      <trkpt lat="48.0971" lon="-4.19195">
        <ele>212.7</ele>
        <time>2021-09-23T14:26:32Z</time>
      </trkpt>
      <trkpt lat="48.0971" lon="-4.19203">
        <ele>212.2</ele>
        <time>2021-09-23T14:26:36Z</time>
      </trkpt>
      <trkpt lat="48.0971" lon="-4.1921">
        <ele>211.9</ele>
        <time>2021-09-23T14:26:39Z</time>
      </trkpt>
      <trkpt lat="48.0971" lon="-4.19217">
        <ele>211.3</ele>
        <time>2021-09-23T14:26:44Z</time>
      </trkpt>
      <trkpt lat="48.09711" lon="-4.19223">
        <ele>210.8</ele>
        <time>2021-09-23T14:26:47Z</time>
      </trkpt>
      <trkpt lat="48.09711" lon="-4.19231">
        <ele>210.2</ele>
        <time>2021-09-23T14:26:51Z</time>
      </trkpt>
      <trkpt lat="48.09711" lon="-4.19238">
        <ele>209.5</ele>
        <time>2021-09-23T14:26:56Z</time>
      </trkpt>
      <trkpt lat="48.09711" lon="-4.19246">
        <ele>208.8</ele>
        <time>2021-09-23T14:27:03Z</time>
      </trkpt>
      <trkpt lat="48.09711" lon="-4.19254">
        <ele>208.8</ele>
        <time>2021-09-23T14:27:06Z</time>
      </trkpt>
      <trkpt lat="48.09712" lon="-4.19263">
        <ele>208.6</ele>
        <time>2021-09-23T14:27:10Z</time>
      </trkpt>
      <trkpt lat="48.09712" lon="-4.1927">
        <ele>208</ele>
        <time>2021-09-23T14:27:14Z</time>
      </trkpt>
      <trkpt lat="48.09712" lon="-4.19282">
        <ele>207</ele>
        <time>2021-09-23T14:27:25Z</time>
      </trkpt>
      <trkpt lat="48.09713" lon="-4.19291">
        <ele>206.5</ele>
        <time>2021-09-23T14:27:28Z</time>
      </trkpt>
      <trkpt lat="48.09712" lon="-4.193">
        <ele>205.6</ele>
        <time>2021-09-23T14:27:32Z</time>
      </trkpt>
      <trkpt lat="48.09711" lon="-4.19307">
        <ele>204.7</ele>
        <time>2021-09-23T14:27:35Z</time>
      </trkpt>
      <trkpt lat="48.0971" lon="-4.19318">
        <ele>202.9</ele>
        <time>2021-09-23T14:27:42Z</time>
      </trkpt>
      <trkpt lat="48.09708" lon="-4.19327">
        <ele>201.9</ele>
        <time>2021-09-23T14:27:45Z</time>
      </trkpt>
      <trkpt lat="48.09708" lon="-4.19335">
        <ele>200.9</ele>
        <time>2021-09-23T14:27:48Z</time>
      </trkpt>
      <trkpt lat="48.09709" lon="-4.19342">
        <ele>199.8</ele>
        <time>2021-09-23T14:27:52Z</time>
      </trkpt>
      <trkpt lat="48.09711" lon="-4.1935">
        <ele>198.7</ele>
        <time>2021-09-23T14:27:56Z</time>
      </trkpt>
      <trkpt lat="48.09711" lon="-4.19358">
        <ele>198</ele>
        <time>2021-09-23T14:28:00Z</time>
      </trkpt>
      <trkpt lat="48.09711" lon="-4.19365">
        <ele>197.5</ele>
        <time>2021-09-23T14:28:04Z</time>
      </trkpt>
      <trkpt lat="48.0971" lon="-4.19377">
        <ele>196.3</ele>
        <time>2021-09-23T14:28:14Z</time>
      </trkpt>
      <trkpt lat="48.0971" lon="-4.19386">
        <ele>195.6</ele>
        <time>2021-09-23T14:28:17Z</time>
      </trkpt>
      <trkpt lat="48.09709" lon="-4.19397">
        <ele>194.4</ele>
        <time>2021-09-23T14:28:26Z</time>
      </trkpt>
      <trkpt lat="48.09709" lon="-4.19406">
        <ele>194.1</ele>
        <time>2021-09-23T14:28:29Z</time>
      </trkpt>
      <trkpt lat="48.0971" lon="-4.19415">
        <ele>193.4</ele>
        <time>2021-09-23T14:28:35Z</time>
      </trkpt>
      <trkpt lat="48.09712" lon="-4.19422">
        <ele>192.8</ele>
        <time>2021-09-23T14:28:38Z</time>
      </trkpt>
      <trkpt lat="48.09712" lon="-4.19429">
        <ele>191.9</ele>
        <time>2021-09-23T14:28:42Z</time>
      </trkpt>
      <trkpt lat="48.09711" lon="-4.19438">
        <ele>190.9</ele>
        <time>2021-09-23T14:28:49Z</time>
      </trkpt>
      <trkpt lat="48.09712" lon="-4.19447">
        <ele>190.5</ele>
        <time>2021-09-23T14:28:52Z</time>
      </trkpt>
      <trkpt lat="48.09712" lon="-4.19455">
        <ele>190.1</ele>
        <time>2021-09-23T14:28:55Z</time>
      </trkpt>
      <trkpt lat="48.09712" lon="-4.19462">
        <ele>189.9</ele>
        <time>2021-09-23T14:28:58Z</time>
      </trkpt>
      <trkpt lat="48.09712" lon="-4.19473">
        <ele>189.6</ele>
        <time>2021-09-23T14:29:05Z</time>
      </trkpt>
      <trkpt lat="48.09712" lon="-4.1948">
        <ele>189.4</ele>
        <time>2021-09-23T14:29:08Z</time>
      </trkpt>
      <trkpt lat="48.09712" lon="-4.1949">
        <ele>188.7</ele>
        <time>2021-09-23T14:29:17Z</time>
      </trkpt>
      <trkpt lat="48.09712" lon="-4.19499">
        <ele>188.1</ele>
        <time>2021-09-23T14:29:20Z</time>
      </trkpt>
      <trkpt lat="48.09711" lon="-4.1951">
        <ele>187</ele>
        <time>2021-09-23T14:29:28Z</time>
      </trkpt>
      <trkpt lat="48.0971" lon="-4.1952">
        <ele>186.4</ele>
        <time>2021-09-23T14:29:31Z</time>
      </trkpt>
      <trkpt lat="48.09709" lon="-4.19527">
        <ele>185.8</ele>
        <time>2021-09-23T14:29:34Z</time>
      </trkpt>
      <trkpt lat="48.09708" lon="-4.19534">
        <ele>185.2</ele>
        <time>2021-09-23T14:29:37Z</time>
      </trkpt>
      <trkpt lat="48.09707" lon="-4.19542">
        <ele>184.3</ele>
        <time>2021-09-23T14:29:41Z</time>
      </trkpt>
      <trkpt lat="48.09709" lon="-4.19551">
        <ele>183.6</ele>
        <time>2021-09-23T14:29:47Z</time>
      </trkpt>
      <trkpt lat="48.09708" lon="-4.19558">
        <ele>183.2</ele>
        <time>2021-09-23T14:29:51Z</time>
      </trkpt>
      <trkpt lat="48.09709" lon="-4.19565">
        <ele>182.8</ele>
        <time>2021-09-23T14:29:56Z</time>
      </trkpt>
      <trkpt lat="48.09709" lon="-4.19572">
        <ele>182.6</ele>
        <time>2021-09-23T14:29:59Z</time>
      </trkpt>
      <trkpt lat="48.09707" lon="-4.19582">
        <ele>182.5</ele>
        <time>2021-09-23T14:30:08Z</time>
      </trkpt>
      <trkpt lat="48.09706" lon="-4.19589">
        <ele>182.6</ele>
        <time>2021-09-23T14:30:11Z</time>
      </trkpt>
      <trkpt lat="48.09705" lon="-4.196">
        <ele>182.5</ele>
        <time>2021-09-23T14:30:19Z</time>
      </trkpt>
      <trkpt lat="48.09704" lon="-4.19609">
        <ele>182.1</ele>
        <time>2021-09-23T14:30:22Z</time>
      </trkpt>
      <trkpt lat="48.09704" lon="-4.1962">
        <ele>180.8</ele>
        <time>2021-09-23T14:30:33Z</time>
      </trkpt>
      <trkpt lat="48.09703" lon="-4.19628">
        <ele>180.1</ele>
        <time>2021-09-23T14:30:36Z</time>
      </trkpt>
      <trkpt lat="48.09702" lon="-4.19639">
        <ele>178.7</ele>
        <time>2021-09-23T14:30:45Z</time>
      </trkpt>
      <trkpt lat="48.09702" lon="-4.19647">
        <ele>178.2</ele>
        <time>2021-09-23T14:30:48Z</time>
      </trkpt>
      <trkpt lat="48.09703" lon="-4.19655">
        <ele>177.3</ele>
        <time>2021-09-23T14:30:55Z</time>
      </trkpt>
      <trkpt lat="48.09702" lon="-4.19668">
        <ele>176.4</ele>
        <time>2021-09-23T14:31:07Z</time>
      </trkpt>
      <trkpt lat="48.09701" lon="-4.19677">
        <ele>176.2</ele>
        <time>2021-09-23T14:31:10Z</time>
      </trkpt>
      <trkpt lat="48.097" lon="-4.19688">
        <ele>175.8</ele>
        <time>2021-09-23T14:31:19Z</time>
      </trkpt>
      <trkpt lat="48.09698" lon="-4.19698">
        <ele>175.6</ele>
        <time>2021-09-23T14:31:22Z</time>
      </trkpt>
      <trkpt lat="48.09697" lon="-4.19705">
        <ele>175.3</ele>
        <time>2021-09-23T14:31:25Z</time>
      </trkpt>
      <trkpt lat="48.09696" lon="-4.19711">
        <ele>174.8</ele>
        <time>2021-09-23T14:31:32Z</time>
      </trkpt>
      <trkpt lat="48.09694" lon="-4.19718">
        <ele>174.7</ele>
        <time>2021-09-23T14:31:36Z</time>
      </trkpt>
      <trkpt lat="48.09692" lon="-4.19727">
        <ele>174.5</ele>
        <time>2021-09-23T14:31:39Z</time>
      </trkpt>
      <trkpt lat="48.09689" lon="-4.19733">
        <ele>174.3</ele>
        <time>2021-09-23T14:31:42Z</time>
      </trkpt>
      <trkpt lat="48.09686" lon="-4.19742">
        <ele>173.8</ele>
        <time>2021-09-23T14:32:07Z</time>
      </trkpt>
      <trkpt lat="48.09685" lon="-4.19748">
        <ele>173.6</ele>
        <time>2021-09-23T14:32:12Z</time>
      </trkpt>
      <trkpt lat="48.09684" lon="-4.19756">
        <ele>172.2</ele>
        <time>2021-09-23T14:33:20Z</time>
      </trkpt>
      <trkpt lat="48.09682" lon="-4.19766">
        <ele>171</ele>
        <time>2021-09-23T14:33:23Z</time>
      </trkpt>
      <trkpt lat="48.0968" lon="-4.19772">
        <ele>169.8</ele>
        <time>2021-09-23T14:33:26Z</time>
      </trkpt>
      <trkpt lat="48.09679" lon="-4.19781">
        <ele>167.9</ele>
        <time>2021-09-23T14:33:33Z</time>
      </trkpt>
      <trkpt lat="48.09678" lon="-4.19788">
        <ele>167.1</ele>
        <time>2021-09-23T14:33:36Z</time>
      </trkpt>
      <trkpt lat="48.09676" lon="-4.19795">
        <ele>166.2</ele>
        <time>2021-09-23T14:33:40Z</time>
      </trkpt>
      <trkpt lat="48.09674" lon="-4.19806">
        <ele>165.1</ele>
        <time>2021-09-23T14:33:50Z</time>
      </trkpt>
      <trkpt lat="48.09674" lon="-4.19815">
        <ele>165</ele>
        <time>2021-09-23T14:33:53Z</time>
      </trkpt>
      <trkpt lat="48.09675" lon="-4.19823">
        <ele>164.8</ele>
        <time>2021-09-23T14:33:57Z</time>
      </trkpt>
      <trkpt lat="48.09676" lon="-4.19831">
        <ele>164.7</ele>
        <time>2021-09-23T14:34:01Z</time>
      </trkpt>
      <trkpt lat="48.09676" lon="-4.19839">
        <ele>164.6</ele>
        <time>2021-09-23T14:34:06Z</time>
      </trkpt>
      <trkpt lat="48.09676" lon="-4.19846">
        <ele>164.5</ele>
        <time>2021-09-23T14:34:10Z</time>
      </trkpt>
      <trkpt lat="48.09676" lon="-4.19853">
        <ele>163.6</ele>
        <time>2021-09-23T14:34:14Z</time>
      </trkpt>
      <trkpt lat="48.09676" lon="-4.19861">
        <ele>162.6</ele>
        <time>2021-09-23T14:34:18Z</time>
      </trkpt>
      <trkpt lat="48.09677" lon="-4.19868">
        <ele>161.7</ele>
        <time>2021-09-23T14:34:24Z</time>
      </trkpt>
      <trkpt lat="48.09678" lon="-4.19875">
        <ele>161.6</ele>
        <time>2021-09-23T14:34:29Z</time>
      </trkpt>
      <trkpt lat="48.09681" lon="-4.19883">
        <ele>161.4</ele>
        <time>2021-09-23T14:34:32Z</time>
      </trkpt>
      <trkpt lat="48.09683" lon="-4.19889">
        <ele>160.9</ele>
        <time>2021-09-23T14:34:36Z</time>
      </trkpt>
      <trkpt lat="48.09685" lon="-4.19897">
        <ele>160.1</ele>
        <time>2021-09-23T14:34:41Z</time>
      </trkpt>
      <trkpt lat="48.09688" lon="-4.19904">
        <ele>159.7</ele>
        <time>2021-09-23T14:34:45Z</time>
      </trkpt>
      <trkpt lat="48.09691" lon="-4.19911">
        <ele>158.6</ele>
        <time>2021-09-23T14:34:50Z</time>
      </trkpt>
      <trkpt lat="48.09694" lon="-4.19918">
        <ele>157.4</ele>
        <time>2021-09-23T14:34:54Z</time>
      </trkpt>
      <trkpt lat="48.09695" lon="-4.19925">
        <ele>156.7</ele>
        <time>2021-09-23T14:34:58Z</time>
      </trkpt>
      <trkpt lat="48.09697" lon="-4.19931">
        <ele>156</ele>
        <time>2021-09-23T14:35:02Z</time>
      </trkpt>
      <trkpt lat="48.097" lon="-4.19937">
        <ele>155.4</ele>
        <time>2021-09-23T14:35:07Z</time>
      </trkpt>
      <trkpt lat="48.09703" lon="-4.19945">
        <ele>154.4</ele>
        <time>2021-09-23T14:35:17Z</time>
      </trkpt>
      <trkpt lat="48.09707" lon="-4.19953">
        <ele>153.9</ele>
        <time>2021-09-23T14:35:20Z</time>
      </trkpt>
      <trkpt lat="48.0971" lon="-4.19958">
        <ele>153.4</ele>
        <time>2021-09-23T14:35:23Z</time>
      </trkpt>
      <trkpt lat="48.09712" lon="-4.19965">
        <ele>152.9</ele>
        <time>2021-09-23T14:35:27Z</time>
      </trkpt>
      <trkpt lat="48.09715" lon="-4.1997">
        <ele>152.3</ele>
        <time>2021-09-23T14:35:31Z</time>
      </trkpt>
      <trkpt lat="48.09719" lon="-4.19974">
        <ele>151.8</ele>
        <time>2021-09-23T14:35:35Z</time>
      </trkpt>
      <trkpt lat="48.09726" lon="-4.19975">
        <ele>151.1</ele>
        <time>2021-09-23T14:35:44Z</time>
      </trkpt>
      <trkpt lat="48.09731" lon="-4.19976">
        <ele>150.6</ele>
        <time>2021-09-23T14:35:48Z</time>
      </trkpt>
      <trkpt lat="48.09734" lon="-4.19982">
        <ele>150.1</ele>
        <time>2021-09-23T14:35:58Z</time>
      </trkpt>
      <trkpt lat="48.09736" lon="-4.19988">
        <ele>150.3</ele>
        <time>2021-09-23T14:36:01Z</time>
      </trkpt>
      <trkpt lat="48.09737" lon="-4.19998">
        <ele>151</ele>
        <time>2021-09-23T14:36:10Z</time>
      </trkpt>
      <trkpt lat="48.09738" lon="-4.20005">
        <ele>151.2</ele>
        <time>2021-09-23T14:36:13Z</time>
      </trkpt>
      <trkpt lat="48.09741" lon="-4.20013">
        <ele>151.5</ele>
        <time>2021-09-23T14:36:19Z</time>
      </trkpt>
      <trkpt lat="48.09742" lon="-4.2002">
        <ele>151.4</ele>
        <time>2021-09-23T14:36:24Z</time>
      </trkpt>
      <trkpt lat="48.09744" lon="-4.20027">
        <ele>151.2</ele>
        <time>2021-09-23T14:36:28Z</time>
      </trkpt>
      <trkpt lat="48.09745" lon="-4.20034">
        <ele>151</ele>
        <time>2021-09-23T14:36:31Z</time>
      </trkpt>
      <trkpt lat="48.09746" lon="-4.20041">
        <ele>150.8</ele>
        <time>2021-09-23T14:36:35Z</time>
      </trkpt>
      <trkpt lat="48.09748" lon="-4.20048">
        <ele>150.5</ele>
        <time>2021-09-23T14:36:39Z</time>
      </trkpt>
      <trkpt lat="48.0975" lon="-4.20054">
        <ele>149.7</ele>
        <time>2021-09-23T14:36:48Z</time>
      </trkpt>
      <trkpt lat="48.09752" lon="-4.2006">
        <ele>149.3</ele>
        <time>2021-09-23T14:36:51Z</time>
      </trkpt>
      <trkpt lat="48.09756" lon="-4.20067">
        <ele>148.9</ele>
        <time>2021-09-23T14:36:54Z</time>
      </trkpt>
      <trkpt lat="48.0976" lon="-4.20076">
        <ele>147.2</ele>
        <time>2021-09-23T14:37:02Z</time>
      </trkpt>
      <trkpt lat="48.09763" lon="-4.20084">
        <ele>146</ele>
        <time>2021-09-23T14:37:05Z</time>
      </trkpt>
      <trkpt lat="48.09766" lon="-4.20092">
        <ele>143.5</ele>
        <time>2021-09-23T14:37:15Z</time>
      </trkpt>
      <trkpt lat="48.09769" lon="-4.20099">
        <ele>142.8</ele>
        <time>2021-09-23T14:37:18Z</time>
      </trkpt>
      <trkpt lat="48.0977" lon="-4.20106">
        <ele>141.6</ele>
        <time>2021-09-23T14:37:25Z</time>
      </trkpt>
      <trkpt lat="48.09772" lon="-4.20113">
        <ele>140.9</ele>
        <time>2021-09-23T14:37:28Z</time>
      </trkpt>
      <trkpt lat="48.09776" lon="-4.20124">
        <ele>139.1</ele>
        <time>2021-09-23T14:37:37Z</time>
      </trkpt>
      <trkpt lat="48.09779" lon="-4.20132">
        <ele>138.9</ele>
        <time>2021-09-23T14:37:40Z</time>
      </trkpt>
      <trkpt lat="48.09783" lon="-4.20141">
        <ele>138.3</ele>
        <time>2021-09-23T14:37:50Z</time>
      </trkpt>
      <trkpt lat="48.09786" lon="-4.20147">
        <ele>138</ele>
        <time>2021-09-23T14:37:53Z</time>
      </trkpt>
      <trkpt lat="48.09789" lon="-4.20156">
        <ele>136.8</ele>
        <time>2021-09-23T14:38:04Z</time>
      </trkpt>
      <trkpt lat="48.09792" lon="-4.20163">
        <ele>135.8</ele>
        <time>2021-09-23T14:38:07Z</time>
      </trkpt>
      <trkpt lat="48.09795" lon="-4.2017">
        <ele>134.5</ele>
        <time>2021-09-23T14:38:12Z</time>
      </trkpt>
      <trkpt lat="48.098" lon="-4.20174">
        <ele>134.2</ele>
        <time>2021-09-23T14:38:16Z</time>
      </trkpt>
      <trkpt lat="48.09804" lon="-4.2018">
        <ele>134.2</ele>
        <time>2021-09-23T14:38:20Z</time>
      </trkpt>
      <trkpt lat="48.09807" lon="-4.20186">
        <ele>134.4</ele>
        <time>2021-09-23T14:38:24Z</time>
      </trkpt>
      <trkpt lat="48.09811" lon="-4.20192">
        <ele>134.5</ele>
        <time>2021-09-23T14:38:28Z</time>
      </trkpt>
      <trkpt lat="48.09813" lon="-4.20199">
        <ele>134.7</ele>
        <time>2021-09-23T14:38:32Z</time>
      </trkpt>
      <trkpt lat="48.09815" lon="-4.20205">
        <ele>134.9</ele>
        <time>2021-09-23T14:38:36Z</time>
      </trkpt>
      <trkpt lat="48.09818" lon="-4.20212">
        <ele>135.5</ele>
        <time>2021-09-23T14:38:40Z</time>
      </trkpt>
      <trkpt lat="48.0982" lon="-4.20219">
        <ele>136.5</ele>
        <time>2021-09-23T14:38:44Z</time>
      </trkpt>
      <trkpt lat="48.09821" lon="-4.20225">
        <ele>137.3</ele>
        <time>2021-09-23T14:38:48Z</time>
      </trkpt>
      <trkpt lat="48.09824" lon="-4.20232">
        <ele>138</ele>
        <time>2021-09-23T14:38:53Z</time>
      </trkpt>
      <trkpt lat="48.09827" lon="-4.20239">
        <ele>138.3</ele>
        <time>2021-09-23T14:38:58Z</time>
      </trkpt>
      <trkpt lat="48.0983" lon="-4.20248">
        <ele>139.3</ele>
        <time>2021-09-23T14:39:01Z</time>
      </trkpt>
      <trkpt lat="48.09833" lon="-4.20258">
        <ele>140.9</ele>
        <time>2021-09-23T14:39:04Z</time>
      </trkpt>
      <trkpt lat="48.09835" lon="-4.20266">
        <ele>142.2</ele>
        <time>2021-09-23T14:39:07Z</time>
      </trkpt>
      <trkpt lat="48.09837" lon="-4.20273">
        <ele>143.4</ele>
        <time>2021-09-23T14:39:10Z</time>
      </trkpt>
      <trkpt lat="48.09839" lon="-4.20279">
        <ele>144.6</ele>
        <time>2021-09-23T14:39:13Z</time>
      </trkpt>
      <trkpt lat="48.09841" lon="-4.20286">
        <ele>145.5</ele>
        <time>2021-09-23T14:39:16Z</time>
      </trkpt>
      <trkpt lat="48.09844" lon="-4.20293">
        <ele>146.4</ele>
        <time>2021-09-23T14:39:20Z</time>
      </trkpt>
      <trkpt lat="48.09846" lon="-4.20299">
        <ele>147.2</ele>
        <time>2021-09-23T14:39:24Z</time>
      </trkpt>
      <trkpt lat="48.09849" lon="-4.20305">
        <ele>147.5</ele>
        <time>2021-09-23T14:39:30Z</time>
      </trkpt>
      <trkpt lat="48.09851" lon="-4.20311">
        <ele>147.9</ele>
        <time>2021-09-23T14:39:34Z</time>
      </trkpt>
      <trkpt lat="48.09854" lon="-4.20319">
        <ele>148.3</ele>
        <time>2021-09-23T14:39:37Z</time>
      </trkpt>
      <trkpt lat="48.09857" lon="-4.20327">
        <ele>148.7</ele>
        <time>2021-09-23T14:39:41Z</time>
      </trkpt>
      <trkpt lat="48.0986" lon="-4.20334">
        <ele>148.9</ele>
        <time>2021-09-23T14:39:44Z</time>
      </trkpt>
      <trkpt lat="48.09862" lon="-4.20341">
        <ele>148.9</ele>
        <time>2021-09-23T14:39:47Z</time>
      </trkpt>
      <trkpt lat="48.09864" lon="-4.20348">
        <ele>148.7</ele>
        <time>2021-09-23T14:39:50Z</time>
      </trkpt>
      <trkpt lat="48.09865" lon="-4.20355">
        <ele>148.6</ele>
        <time>2021-09-23T14:39:53Z</time>
      </trkpt>
      <trkpt lat="48.09867" lon="-4.20362">
        <ele>148.4</ele>
        <time>2021-09-23T14:39:56Z</time>
      </trkpt>
      <trkpt lat="48.09869" lon="-4.20369">
        <ele>148.3</ele>
        <time>2021-09-23T14:40:00Z</time>
      </trkpt>
      <trkpt lat="48.09871" lon="-4.20377">
        <ele>148.1</ele>
        <time>2021-09-23T14:40:04Z</time>
      </trkpt>
      <trkpt lat="48.09873" lon="-4.20384">
        <ele>147.7</ele>
        <time>2021-09-23T14:40:08Z</time>
      </trkpt>
      <trkpt lat="48.09876" lon="-4.2039">
        <ele>147.3</ele>
        <time>2021-09-23T14:40:12Z</time>
      </trkpt>
      <trkpt lat="48.09879" lon="-4.20397">
        <ele>146.9</ele>
        <time>2021-09-23T14:40:16Z</time>
      </trkpt>
      <trkpt lat="48.09882" lon="-4.20403">
        <ele>146.4</ele>
        <time>2021-09-23T14:40:20Z</time>
      </trkpt>
      <trkpt lat="48.09886" lon="-4.20409">
        <ele>146.4</ele>
        <time>2021-09-23T14:40:24Z</time>
      </trkpt>
      <trkpt lat="48.09887" lon="-4.20417">
        <ele>147.1</ele>
        <time>2021-09-23T14:40:28Z</time>
      </trkpt>
      <trkpt lat="48.09889" lon="-4.20424">
        <ele>148</ele>
        <time>2021-09-23T14:40:32Z</time>
      </trkpt>
      <trkpt lat="48.09891" lon="-4.20432">
        <ele>148.7</ele>
        <time>2021-09-23T14:40:36Z</time>
      </trkpt>
      <trkpt lat="48.09892" lon="-4.20439">
        <ele>149.5</ele>
        <time>2021-09-23T14:40:40Z</time>
      </trkpt>
      <trkpt lat="48.09893" lon="-4.20446">
        <ele>150</ele>
        <time>2021-09-23T14:40:44Z</time>
      </trkpt>
      <trkpt lat="48.09893" lon="-4.20453">
        <ele>150.3</ele>
        <time>2021-09-23T14:40:49Z</time>
      </trkpt>
      <trkpt lat="48.09893" lon="-4.20461">
        <ele>150.6</ele>
        <time>2021-09-23T14:40:57Z</time>
      </trkpt>
      <trkpt lat="48.09893" lon="-4.20469">
        <ele>150.6</ele>
        <time>2021-09-23T14:41:00Z</time>
      </trkpt>
      <trkpt lat="48.09893" lon="-4.20477">
        <ele>150.7</ele>
        <time>2021-09-23T14:41:05Z</time>
      </trkpt>
      <trkpt lat="48.09893" lon="-4.20485">
        <ele>150.8</ele>
        <time>2021-09-23T14:41:08Z</time>
      </trkpt>
      <trkpt lat="48.09893" lon="-4.20494">
        <ele>150.9</ele>
        <time>2021-09-23T14:41:13Z</time>
      </trkpt>
      <trkpt lat="48.09892" lon="-4.20502">
        <ele>150.9</ele>
        <time>2021-09-23T14:41:17Z</time>
      </trkpt>
      <trkpt lat="48.09892" lon="-4.2051">
        <ele>151.1</ele>
        <time>2021-09-23T14:41:21Z</time>
      </trkpt>
      <trkpt lat="48.09891" lon="-4.20519">
        <ele>151.5</ele>
        <time>2021-09-23T14:41:26Z</time>
      </trkpt>
      <trkpt lat="48.09889" lon="-4.20526">
        <ele>151.8</ele>
        <time>2021-09-23T14:41:29Z</time>
      </trkpt>
      <trkpt lat="48.09888" lon="-4.20534">
        <ele>152.1</ele>
        <time>2021-09-23T14:41:33Z</time>
      </trkpt>
      <trkpt lat="48.09887" lon="-4.20542">
        <ele>152.3</ele>
        <time>2021-09-23T14:41:37Z</time>
      </trkpt>
      <trkpt lat="48.09886" lon="-4.2055">
        <ele>152.4</ele>
        <time>2021-09-23T14:41:41Z</time>
      </trkpt>
      <trkpt lat="48.09886" lon="-4.20556">
        <ele>152.6</ele>
        <time>2021-09-23T14:41:44Z</time>
      </trkpt>
      <trkpt lat="48.09885" lon="-4.20564">
        <ele>153.2</ele>
        <time>2021-09-23T14:41:48Z</time>
      </trkpt>
      <trkpt lat="48.09884" lon="-4.20571">
        <ele>153.8</ele>
        <time>2021-09-23T14:41:52Z</time>
      </trkpt>
      <trkpt lat="48.09883" lon="-4.20579">
        <ele>154.5</ele>
        <time>2021-09-23T14:41:56Z</time>
      </trkpt>
      <trkpt lat="48.09881" lon="-4.20586">
        <ele>155.3</ele>
        <time>2021-09-23T14:42:01Z</time>
      </trkpt>
      <trkpt lat="48.09881" lon="-4.20595">
        <ele>156.1</ele>
        <time>2021-09-23T14:42:06Z</time>
      </trkpt>
      <trkpt lat="48.0988" lon="-4.20601">
        <ele>156.7</ele>
        <time>2021-09-23T14:42:10Z</time>
      </trkpt>
      <trkpt lat="48.09879" lon="-4.20609">
        <ele>157.6</ele>
        <time>2021-09-23T14:42:14Z</time>
      </trkpt>
      <trkpt lat="48.09879" lon="-4.20616">
        <ele>158.6</ele>
        <time>2021-09-23T14:42:18Z</time>
      </trkpt>
      <trkpt lat="48.09877" lon="-4.20623">
        <ele>159.7</ele>
        <time>2021-09-23T14:42:22Z</time>
      </trkpt>
      <trkpt lat="48.09873" lon="-4.20629">
        <ele>160.6</ele>
        <time>2021-09-23T14:42:26Z</time>
      </trkpt>
      <trkpt lat="48.09871" lon="-4.20637">
        <ele>161.2</ele>
        <time>2021-09-23T14:42:30Z</time>
      </trkpt>
      <trkpt lat="48.0987" lon="-4.20647">
        <ele>161.2</ele>
        <time>2021-09-23T14:42:39Z</time>
      </trkpt>
      <trkpt lat="48.09869" lon="-4.20655">
        <ele>160.6</ele>
        <time>2021-09-23T14:42:42Z</time>
      </trkpt>
      <trkpt lat="48.09867" lon="-4.20661">
        <ele>159.3</ele>
        <time>2021-09-23T14:42:47Z</time>
      </trkpt>
      <trkpt lat="48.09864" lon="-4.20669">
        <ele>156.9</ele>
        <time>2021-09-23T14:42:58Z</time>
      </trkpt>
      <trkpt lat="48.09862" lon="-4.20677">
        <ele>155.7</ele>
        <time>2021-09-23T14:43:01Z</time>
      </trkpt>
      <trkpt lat="48.09859" lon="-4.20686">
        <ele>153.2</ele>
        <time>2021-09-23T14:43:12Z</time>
      </trkpt>
      <trkpt lat="48.09856" lon="-4.20693">
        <ele>152.5</ele>
        <time>2021-09-23T14:43:15Z</time>
      </trkpt>
      <trkpt lat="48.09855" lon="-4.20701">
        <ele>151.6</ele>
        <time>2021-09-23T14:43:21Z</time>
      </trkpt>
      <trkpt lat="48.09853" lon="-4.2071">
        <ele>151.5</ele>
        <time>2021-09-23T14:43:24Z</time>
      </trkpt>
      <trkpt lat="48.09851" lon="-4.20717">
        <ele>151.6</ele>
        <time>2021-09-23T14:43:28Z</time>
      </trkpt>
      <trkpt lat="48.0985" lon="-4.20725">
        <ele>151.9</ele>
        <time>2021-09-23T14:43:35Z</time>
      </trkpt>
      <trkpt lat="48.09849" lon="-4.20734">
        <ele>152.1</ele>
        <time>2021-09-23T14:43:38Z</time>
      </trkpt>
      <trkpt lat="48.09849" lon="-4.20742">
        <ele>152.3</ele>
        <time>2021-09-23T14:43:42Z</time>
      </trkpt>
      <trkpt lat="48.09848" lon="-4.20752">
        <ele>152.2</ele>
        <time>2021-09-23T14:43:50Z</time>
      </trkpt>
      <trkpt lat="48.09847" lon="-4.20761">
        <ele>151.9</ele>
        <time>2021-09-23T14:43:53Z</time>
      </trkpt>
      <trkpt lat="48.09845" lon="-4.20773">
        <ele>150.4</ele>
        <time>2021-09-23T14:44:04Z</time>
      </trkpt>
      <trkpt lat="48.09844" lon="-4.20781">
        <ele>149.7</ele>
        <time>2021-09-23T14:44:07Z</time>
      </trkpt>
      <trkpt lat="48.09841" lon="-4.20788">
        <ele>148.4</ele>
        <time>2021-09-23T14:44:15Z</time>
      </trkpt>
      <trkpt lat="48.09839" lon="-4.20794">
        <ele>147.9</ele>
        <time>2021-09-23T14:44:19Z</time>
      </trkpt>
      <trkpt lat="48.09838" lon="-4.20803">
        <ele>147.6</ele>
        <time>2021-09-23T14:44:26Z</time>
      </trkpt>
      <trkpt lat="48.09838" lon="-4.20812">
        <ele>147.5</ele>
        <time>2021-09-23T14:44:29Z</time>
      </trkpt>
      <trkpt lat="48.09836" lon="-4.20821">
        <ele>147.2</ele>
        <time>2021-09-23T14:44:40Z</time>
      </trkpt>
      <trkpt lat="48.09832" lon="-4.20826">
        <ele>147.1</ele>
        <time>2021-09-23T14:44:43Z</time>
      </trkpt>
      <trkpt lat="48.09829" lon="-4.2082">
        <ele>149.9</ele>
        <time>2021-09-23T14:49:00Z</time>
      </trkpt>
      <trkpt lat="48.0983" lon="-4.20827">
        <ele>155.4</ele>
        <time>2021-09-23T14:51:18Z</time>
      </trkpt>
      <trkpt lat="48.0983" lon="-4.20834">
        <ele>155.5</ele>
        <time>2021-09-23T14:51:23Z</time>
      </trkpt>
      <trkpt lat="48.09826" lon="-4.20828">
        <ele>154.5</ele>
        <time>2021-09-23T14:52:05Z</time>
      </trkpt>
      <trkpt lat="48.09826" lon="-4.20817">
        <ele>151.9</ele>
        <time>2021-09-23T14:56:53Z</time>
      </trkpt>
      <trkpt lat="48.09826" lon="-4.20826">
        <ele>151.8</ele>
        <time>2021-09-23T14:58:11Z</time>
      </trkpt>
      <trkpt lat="48.09829" lon="-4.20831">
        <ele>152</ele>
        <time>2021-09-23T14:58:15Z</time>
      </trkpt>
      <trkpt lat="48.09825" lon="-4.20834">
        <ele>152.7</ele>
        <time>2021-09-23T15:01:35Z</time>
      </trkpt>
      <trkpt lat="48.0982" lon="-4.20837">
        <ele>153</ele>
        <time>2021-09-23T15:01:38Z</time>
      </trkpt>
      <trkpt lat="48.09819" lon="-4.20845">
        <ele>154.5</ele>
        <time>2021-09-23T15:01:55Z</time>
      </trkpt>
      <trkpt lat="48.09819" lon="-4.20852">
        <ele>155.5</ele>
        <time>2021-09-23T15:01:58Z</time>
      </trkpt>
      <trkpt lat="48.09817" lon="-4.20845">
        <ele>158</ele>
        <time>2021-09-23T15:02:33Z</time>
      </trkpt>
      <trkpt lat="48.09817" lon="-4.20838">
        <ele>158.3</ele>
        <time>2021-09-23T15:02:36Z</time>
      </trkpt>
      <trkpt lat="48.09812" lon="-4.20841">
        <ele>158.8</ele>
        <time>2021-09-23T15:13:27Z</time>
      </trkpt>
      <trkpt lat="48.09817" lon="-4.20824">
        <ele>171.2</ele>
        <time>2021-09-23T15:14:11Z</time>
      </trkpt>
      <trkpt lat="48.09822" lon="-4.20825">
        <ele>174.2</ele>
        <time>2021-09-23T15:14:15Z</time>
      </trkpt>
      <trkpt lat="48.09822" lon="-4.20833">
        <ele>178.3</ele>
        <time>2021-09-23T15:14:30Z</time>
      </trkpt>
      <trkpt lat="48.09821" lon="-4.2084">
        <ele>179.6</ele>
        <time>2021-09-23T15:14:33Z</time>
      </trkpt>
      <trkpt lat="48.09824" lon="-4.20847">
        <ele>182.2</ele>
        <time>2021-09-23T15:16:04Z</time>
      </trkpt>
      <trkpt lat="48.09826" lon="-4.20841">
        <ele>182</ele>
        <time>2021-09-23T15:16:30Z</time>
      </trkpt>
      <trkpt lat="48.09826" lon="-4.20834">
        <ele>181.7</ele>
        <time>2021-09-23T15:16:35Z</time>
      </trkpt>
      <trkpt lat="48.09825" lon="-4.20842">
        <ele>181.2</ele>
        <time>2021-09-23T15:16:50Z</time>
      </trkpt>
      <trkpt lat="48.09821" lon="-4.20845">
        <ele>180.9</ele>
        <time>2021-09-23T15:17:07Z</time>
      </trkpt>
      <trkpt lat="48.09824" lon="-4.20833">
        <ele>181.2</ele>
        <time>2021-09-23T15:17:28Z</time>
      </trkpt>
      <trkpt lat="48.09828" lon="-4.20832">
        <ele>181.4</ele>
        <time>2021-09-23T15:17:36Z</time>
      </trkpt>
      <trkpt lat="48.0983" lon="-4.20843">
        <ele>181.5</ele>
        <time>2021-09-23T15:18:14Z</time>
      </trkpt>
      <trkpt lat="48.09832" lon="-4.20856">
        <ele>181.6</ele>
        <time>2021-09-23T15:18:17Z</time>
      </trkpt>
      <trkpt lat="48.09831" lon="-4.20867">
        <ele>178.9</ele>
        <time>2021-09-23T15:18:52Z</time>
      </trkpt>
      <trkpt lat="48.0983" lon="-4.20875">
        <ele>175.4</ele>
        <time>2021-09-23T15:18:56Z</time>
      </trkpt>
      <trkpt lat="48.09828" lon="-4.20883">
        <ele>168.7</ele>
        <time>2021-09-23T15:19:10Z</time>
      </trkpt>
      <trkpt lat="48.09824" lon="-4.2089">
        <ele>166.2</ele>
        <time>2021-09-23T15:19:13Z</time>
      </trkpt>
      <trkpt lat="48.09819" lon="-4.20896">
        <ele>163.5</ele>
        <time>2021-09-23T15:19:16Z</time>
      </trkpt>
      <trkpt lat="48.09815" lon="-4.20902">
        <ele>161</ele>
        <time>2021-09-23T15:19:20Z</time>
      </trkpt>
      <trkpt lat="48.09813" lon="-4.20909">
        <ele>159</ele>
        <time>2021-09-23T15:19:25Z</time>
      </trkpt>
      <trkpt lat="48.09813" lon="-4.20916">
        <ele>157.2</ele>
        <time>2021-09-23T15:19:35Z</time>
      </trkpt>
      <trkpt lat="48.09812" lon="-4.20923">
        <ele>156.3</ele>
        <time>2021-09-23T15:19:41Z</time>
      </trkpt>
      <trkpt lat="48.0981" lon="-4.2093">
        <ele>155.7</ele>
        <time>2021-09-23T15:19:44Z</time>
      </trkpt>
      <trkpt lat="48.09809" lon="-4.20937">
        <ele>155</ele>
        <time>2021-09-23T15:19:48Z</time>
      </trkpt>
      <trkpt lat="48.09809" lon="-4.20945">
        <ele>154</ele>
        <time>2021-09-23T15:19:54Z</time>
      </trkpt>
      <trkpt lat="48.09808" lon="-4.20953">
        <ele>153</ele>
        <time>2021-09-23T15:19:59Z</time>
      </trkpt>
      <trkpt lat="48.09809" lon="-4.20962">
        <ele>151.3</ele>
        <time>2021-09-23T15:20:07Z</time>
      </trkpt>
      <trkpt lat="48.09809" lon="-4.20969">
        <ele>150</ele>
        <time>2021-09-23T15:20:12Z</time>
      </trkpt>
      <trkpt lat="48.09807" lon="-4.20976">
        <ele>149</ele>
        <time>2021-09-23T15:20:24Z</time>
      </trkpt>
      <trkpt lat="48.09805" lon="-4.20984">
        <ele>149.1</ele>
        <time>2021-09-23T15:20:27Z</time>
      </trkpt>
      <trkpt lat="48.09803" lon="-4.20994">
        <ele>148.9</ele>
        <time>2021-09-23T15:20:36Z</time>
      </trkpt>
      <trkpt lat="48.09801" lon="-4.21003">
        <ele>148.3</ele>
        <time>2021-09-23T15:20:39Z</time>
      </trkpt>
      <trkpt lat="48.09799" lon="-4.21009">
        <ele>147.8</ele>
        <time>2021-09-23T15:20:42Z</time>
      </trkpt>
      <trkpt lat="48.09797" lon="-4.21017">
        <ele>147.3</ele>
        <time>2021-09-23T15:20:46Z</time>
      </trkpt>
      <trkpt lat="48.09796" lon="-4.21025">
        <ele>147</ele>
        <time>2021-09-23T15:20:51Z</time>
      </trkpt>
      <trkpt lat="48.09796" lon="-4.21032">
        <ele>146.5</ele>
        <time>2021-09-23T15:20:56Z</time>
      </trkpt>
      <trkpt lat="48.09794" lon="-4.21041">
        <ele>146.2</ele>
        <time>2021-09-23T15:21:04Z</time>
      </trkpt>
      <trkpt lat="48.09793" lon="-4.21049">
        <ele>146.1</ele>
        <time>2021-09-23T15:21:07Z</time>
      </trkpt>
      <trkpt lat="48.09792" lon="-4.21057">
        <ele>146.1</ele>
        <time>2021-09-23T15:21:11Z</time>
      </trkpt>
      <trkpt lat="48.09791" lon="-4.21065">
        <ele>145.9</ele>
        <time>2021-09-23T15:21:17Z</time>
      </trkpt>
      <trkpt lat="48.09789" lon="-4.21077">
        <ele>145.6</ele>
        <time>2021-09-23T15:21:33Z</time>
      </trkpt>
      <trkpt lat="48.09788" lon="-4.21084">
        <ele>145.5</ele>
        <time>2021-09-23T15:21:36Z</time>
      </trkpt>
      <trkpt lat="48.09785" lon="-4.21094">
        <ele>145.1</ele>
        <time>2021-09-23T15:21:44Z</time>
      </trkpt>
      <trkpt lat="48.09784" lon="-4.21102">
        <ele>145.1</ele>
        <time>2021-09-23T15:21:47Z</time>
      </trkpt>
      <trkpt lat="48.09782" lon="-4.21113">
        <ele>145.4</ele>
        <time>2021-09-23T15:21:56Z</time>
      </trkpt>
      <trkpt lat="48.09781" lon="-4.2112">
        <ele>145.6</ele>
        <time>2021-09-23T15:21:59Z</time>
      </trkpt>
      <trkpt lat="48.09781" lon="-4.2113">
        <ele>146</ele>
        <time>2021-09-23T15:22:09Z</time>
      </trkpt>
      <trkpt lat="48.0978" lon="-4.21138">
        <ele>145.8</ele>
        <time>2021-09-23T15:22:12Z</time>
      </trkpt>
      <trkpt lat="48.09779" lon="-4.21147">
        <ele>145.5</ele>
        <time>2021-09-23T15:22:22Z</time>
      </trkpt>
      <trkpt lat="48.09777" lon="-4.21155">
        <ele>145.4</ele>
        <time>2021-09-23T15:22:25Z</time>
      </trkpt>
      <trkpt lat="48.09774" lon="-4.21164">
        <ele>145.4</ele>
        <time>2021-09-23T15:22:34Z</time>
      </trkpt>
      <trkpt lat="48.09771" lon="-4.21171">
        <ele>145.3</ele>
        <time>2021-09-23T15:22:38Z</time>
      </trkpt>
      <trkpt lat="48.09774" lon="-4.21178">
        <ele>145.6</ele>
        <time>2021-09-23T15:22:45Z</time>
      </trkpt>
      <trkpt lat="48.09777" lon="-4.21187">
        <ele>146</ele>
        <time>2021-09-23T15:22:52Z</time>
      </trkpt>
      <trkpt lat="48.09775" lon="-4.21194">
        <ele>146.4</ele>
        <time>2021-09-23T15:22:55Z</time>
      </trkpt>
      <trkpt lat="48.09774" lon="-4.212">
        <ele>147.2</ele>
        <time>2021-09-23T15:23:01Z</time>
      </trkpt>
      <trkpt lat="48.09778" lon="-4.21204">
        <ele>149.2</ele>
        <time>2021-09-23T15:23:39Z</time>
      </trkpt>
      <trkpt lat="48.09783" lon="-4.21208">
        <ele>150.1</ele>
        <time>2021-09-23T15:23:42Z</time>
      </trkpt>
      <trkpt lat="48.09782" lon="-4.21207">
        <ele>152.2</ele>
        <time>2021-09-23T15:24:23Z</time>
      </trkpt>
      <trkpt lat="48.09784" lon="-4.21213">
        <ele>152.2</ele>
        <time>2021-09-23T15:24:26Z</time>
      </trkpt>
      <trkpt lat="48.09787" lon="-4.21198">
        <ele>152.5</ele>
        <time>2021-09-23T15:24:58Z</time>
      </trkpt>
      <trkpt lat="48.09792" lon="-4.21204">
        <ele>152.7</ele>
        <time>2021-09-23T15:25:29Z</time>
      </trkpt>
      <trkpt lat="48.0979" lon="-4.2121">
        <ele>153</ele>
        <time>2021-09-23T15:25:32Z</time>
      </trkpt>
      <trkpt lat="48.09787" lon="-4.21221">
        <ele>152.5</ele>
        <time>2021-09-23T15:28:01Z</time>
      </trkpt>
      <trkpt lat="48.09785" lon="-4.21227">
        <ele>151.1</ele>
        <time>2021-09-23T15:28:07Z</time>
      </trkpt>
    </trkseg>
  </trk>
</gpx>